Time,TemperatureF,DewpointF,PressureIn,WindDirection,WindDirectionDegrees,WindSpeedMPH,WindSpeedGustMPH,Humidity,HourlyPrecipIn,Conditions,Clouds,dailyrainin,SoftwareType,DateUTC
2013-07-08 00:00:00,70.2,70.2,28.91,SSW,208,0.0,0.0,100,0.00,,---,0.00,VWS V14.00,2013-07-08 05:00:00,
2013-07-08 00:01:00,70.2,70.2,28.91,SSW,208,0.0,0.0,100,0.00,,---,0.00,VWS V14.00,2013-07-08 05:01:00,
2013-07-08 00:02:00,70.2,70.2,28.91,SSW,208,0.0,0.0,100,0.00,,---,0.00,VWS V14.00,2013-07-08 05:02:00,
2013-07-08 00:03:00,70.0,70.0,28.91,SSW,208,0.0,0.0,100,0.00,,---,0.00,VWS V14.00,2013-07-08 05:03:00,
2013-07-08 00:04:00,70.0,70.0,28.91,SSW,208,0.0,0.0,100,0.00,,---,0.00,VWS V14.00,2013-07-08 05:04:00,
2013-07-08 00:05:00,70.0,70.0,28.91,SSW,208,0.0,0.0,100,0.00,,---,0.00,VWS V14.00,2013-07-08 05:05:00,
2013-07-08 00:06:00,69.8,69.8,28.91,SSW,209,0.0,0.0,100,0.00,,---,0.00,VWS V14.00,2013-07-08 05:06:00,
2013-07-08 00:07:00,69.8,69.8,28.91,SSW,209,0.0,0.0,100,0.00,,---,0.00,VWS V14.00,2013-07-08 05:07:00,
2013-07-08 00:08:00,69.8,69.8,28.91,SSW,209,0.0,0.0,100,0.00,,---,0.00,VWS V14.00,2013-07-08 05:08:00,
2013-07-08 00:09:00,70.0,70.0,28.91,SSW,209,0.0,0.0,100,0.00,,---,0.00,VWS V14.00,2013-07-08 05:09:00,
2013-07-08 00:10:00,70.0,70.0,28.91,SSW,209,0.0,0.0,100,0.00,,---,0.00,VWS V14.00,2013-07-08 05:10:00,
2013-07-08 00:11:00,70.0,70.0,28.91,SSW,209,0.0,0.0,100,0.00,,---,0.00,VWS V14.00,2013-07-08 05:11:00,
2013-07-08 00:12:00,70.0,70.0,28.91,SSW,209,0.0,0.0,100,0.00,,---,0.00,VWS V14.00,2013-07-08 05:12:00,
2013-07-08 00:13:00,70.0,70.0,28.91,SSW,209,0.0,0.0,100,0.00,,---,0.00,VWS V14.00,2013-07-08 05:13:00,
2013-07-08 00:14:00,70.0,70.0,28.91,SSW,209,0.0,0.0,100,0.00,,---,0.00,VWS V14.00,2013-07-08 05:14:00,
2013-07-08 00:15:00,70.0,70.0,28.91,SSW,209,0.0,0.0,100,0.00,,---,0.00,VWS V14.00,2013-07-08 05:15:00,
2013-07-08 00:16:00,70.0,70.0,28.91,SSW,209,0.0,0.0,100,0.00,,---,0.00,VWS V14.00,2013-07-08 05:16:00,
2013-07-08 00:17:00,69.8,69.8,28.91,SSW,209,0.0,0.0,100,0.00,,---,0.00,VWS V14.00,2013-07-08 05:17:00,
2013-07-08 00:18:00,69.8,69.8,28.91,SSW,209,0.0,0.0,100,0.00,,---,0.00,VWS V14.00,2013-07-08 05:18:00,
2013-07-08 00:19:00,69.8,69.8,28.91,SSW,208,0.0,0.0,100,0.00,,---,0.00,VWS V14.00,2013-07-08 05:19:00,
2013-07-08 00:20:00,69.6,69.6,28.91,SSW,209,0.0,0.0,100,0.00,,---,0.00,VWS V14.00,2013-07-08 05:20:00,
2013-07-08 00:21:00,69.6,69.6,28.91,SSW,209,0.0,0.0,100,0.00,,---,0.00,VWS V14.00,2013-07-08 05:21:00,
2013-07-08 00:22:00,69.6,69.6,28.91,SSW,209,0.0,0.0,100,0.00,,---,0.00,VWS V14.00,2013-07-08 05:22:00,
2013-07-08 00:23:00,69.4,69.4,28.91,SSW,209,0.0,0.0,100,0.00,,---,0.00,VWS V14.00,2013-07-08 05:23:00,
2013-07-08 00:24:00,69.4,69.4,28.91,SSW,209,0.0,0.0,100,0.00,,---,0.00,VWS V14.00,2013-07-08 05:24:00,
2013-07-08 00:25:00,69.4,69.4,28.91,SSW,209,0.0,0.0,100,0.00,,---,0.00,VWS V14.00,2013-07-08 05:25:00,
2013-07-08 00:26:00,69.4,69.4,28.91,SSW,209,0.0,0.0,100,0.00,,---,0.00,VWS V14.00,2013-07-08 05:26:00,
2013-07-08 00:27:00,69.3,69.3,28.91,SSW,209,0.0,0.0,100,0.00,,---,0.00,VWS V14.00,2013-07-08 05:27:00,
2013-07-08 00:28:00,69.3,69.3,28.91,SSW,209,0.0,0.0,100,0.00,,---,0.00,VWS V14.00,2013-07-08 05:28:00,
2013-07-08 00:29:00,69.3,69.3,28.91,SSW,209,0.0,0.0,100,0.00,,---,0.00,VWS V14.00,2013-07-08 05:29:00,
2013-07-08 00:30:00,69.1,69.1,28.91,SSW,209,0.0,0.0,100,0.00,,---,0.00,VWS V14.00,2013-07-08 05:30:00,
2013-07-08 00:31:00,69.1,69.1,28.91,SSW,209,0.0,0.0,100,0.00,,---,0.00,VWS V14.00,2013-07-08 05:31:00,
2013-07-08 00:32:00,69.1,69.1,28.91,SSW,209,0.0,0.0,100,0.00,,---,0.00,VWS V14.00,2013-07-08 05:32:00,
2013-07-08 00:33:00,69.1,69.1,28.91,SSW,209,0.0,0.0,100,0.00,,---,0.00,VWS V14.00,2013-07-08 05:33:00,
2013-07-08 00:34:00,69.1,69.1,28.91,SSW,209,0.0,0.0,100,0.00,,---,0.00,VWS V14.00,2013-07-08 05:34:00,
2013-07-08 00:35:00,69.1,69.1,28.91,SSW,209,0.0,0.0,100,0.00,,---,0.00,VWS V14.00,2013-07-08 05:35:00,
2013-07-08 00:36:00,68.9,68.9,28.91,SSW,209,0.0,0.0,100,0.00,,---,0.00,VWS V14.00,2013-07-08 05:36:00,
2013-07-08 00:37:00,68.9,68.9,28.91,SSW,209,0.0,0.0,100,0.00,,---,0.00,VWS V14.00,2013-07-08 05:37:00,
2013-07-08 00:38:00,68.9,68.9,28.91,SSW,209,0.0,0.0,100,0.00,,---,0.00,VWS V14.00,2013-07-08 05:38:00,
2013-07-08 00:39:00,68.9,68.9,28.91,SSW,209,0.0,0.0,100,0.00,,---,0.00,VWS V14.00,2013-07-08 05:39:00,
2013-07-08 00:40:00,68.9,68.9,28.91,SSW,209,0.0,0.0,100,0.00,,---,0.00,VWS V14.00,2013-07-08 05:40:00,
2013-07-08 00:41:00,68.9,68.9,28.91,SSW,209,0.0,0.0,100,0.00,,---,0.00,VWS V14.00,2013-07-08 05:41:00,
2013-07-08 00:42:00,68.7,68.7,28.91,SSW,209,0.0,0.0,100,0.00,,---,0.00,VWS V14.00,2013-07-08 05:42:00,
2013-07-08 00:43:00,68.9,68.9,28.91,SSW,209,0.0,0.0,100,0.00,,---,0.00,VWS V14.00,2013-07-08 05:43:00,
2013-07-08 00:44:00,68.9,68.9,28.91,SSW,209,0.0,0.0,100,0.00,,---,0.00,VWS V14.00,2013-07-08 05:44:00,
2013-07-08 00:45:00,68.9,68.9,28.91,SSW,208,0.0,0.0,100,0.00,,---,0.00,VWS V14.00,2013-07-08 05:45:00,
2013-07-08 00:46:00,68.9,68.9,28.91,SSW,209,0.0,0.0,100,0.00,,---,0.00,VWS V14.00,2013-07-08 05:46:00,
2013-07-08 00:47:00,68.9,68.9,28.91,SSW,209,0.0,0.0,100,0.00,,---,0.00,VWS V14.00,2013-07-08 05:47:00,
2013-07-08 00:48:00,68.9,68.9,28.91,SSW,209,0.0,0.0,100,0.00,,---,0.00,VWS V14.00,2013-07-08 05:48:00,
2013-07-08 00:49:00,68.9,68.9,28.91,SSW,209,0.0,0.0,100,0.00,,---,0.00,VWS V14.00,2013-07-08 05:49:00,
2013-07-08 00:50:00,68.9,68.9,28.91,SSW,209,0.0,0.0,100,0.00,,---,0.00,VWS V14.00,2013-07-08 05:50:00,
2013-07-08 00:51:00,68.9,68.9,28.91,SSW,209,0.0,0.0,100,0.00,,---,0.00,VWS V14.00,2013-07-08 05:51:00,
2013-07-08 00:52:00,68.9,68.9,28.91,SSW,209,0.0,0.0,100,0.00,,---,0.00,VWS V14.00,2013-07-08 05:52:00,
2013-07-08 00:53:00,68.9,68.9,28.91,SSW,209,0.0,0.0,100,0.00,,---,0.00,VWS V14.00,2013-07-08 05:53:00,
2013-07-08 00:54:00,68.9,68.9,28.91,SSW,209,0.0,0.0,100,0.00,,---,0.00,VWS V14.00,2013-07-08 05:54:00,
2013-07-08 00:55:00,68.9,68.9,28.91,SSW,209,0.0,0.0,100,0.00,,---,0.00,VWS V14.00,2013-07-08 05:55:00,
2013-07-08 04:27:00,68.2,68.2,28.91,WSW,242,0.0,0.0,100,0.00,,---,0.00,VWS V14.00,2013-07-08 09:27:00,
2013-07-08 04:29:00,68.2,68.2,28.91,WSW,242,0.0,0.0,100,0.00,,---,0.00,VWS V14.00,2013-07-08 09:29:00,
2013-07-08 04:30:00,68.4,68.4,28.91,WSW,242,0.0,0.0,100,0.00,,---,0.00,VWS V14.00,2013-07-08 09:30:00,
2013-07-08 04:32:00,68.4,68.4,28.91,WSW,242,0.0,0.0,100,0.00,,---,0.00,VWS V14.00,2013-07-08 09:32:00,
2013-07-08 04:34:00,68.4,68.4,28.91,WSW,242,0.0,0.0,100,0.00,,---,0.00,VWS V14.00,2013-07-08 09:34:00,
2013-07-08 04:35:00,68.4,68.4,28.91,WSW,242,0.0,0.0,100,0.00,,---,0.00,VWS V14.00,2013-07-08 09:35:00,
2013-07-08 04:36:00,68.4,68.4,28.91,WSW,242,0.0,0.0,100,0.00,,---,0.00,VWS V14.00,2013-07-08 09:36:00,
2013-07-08 04:37:00,68.4,68.4,28.91,WSW,241,0.0,0.0,100,0.00,,---,0.00,VWS V14.00,2013-07-08 09:37:00,
2013-07-08 04:38:00,68.5,68.5,28.91,WSW,242,0.0,0.0,100,0.00,,---,0.00,VWS V14.00,2013-07-08 09:38:00,
2013-07-08 04:39:00,68.5,68.5,28.91,WSW,242,0.0,0.0,100,0.00,,---,0.00,VWS V14.00,2013-07-08 09:39:00,
2013-07-08 04:41:00,68.5,68.5,28.91,WSW,242,0.0,0.0,100,0.00,,---,0.00,VWS V14.00,2013-07-08 09:41:00,
2013-07-08 04:42:00,68.5,68.5,28.91,WSW,242,0.0,0.0,100,0.00,,---,0.00,VWS V14.00,2013-07-08 09:42:00,
2013-07-08 04:43:00,68.5,68.5,28.91,WSW,242,0.0,0.0,100,0.00,,---,0.00,VWS V14.00,2013-07-08 09:43:00,
2013-07-08 04:46:00,68.5,68.5,28.91,WSW,242,0.0,0.0,100,0.00,,---,0.00,VWS V14.00,2013-07-08 09:46:00,
2013-07-08 04:47:00,68.5,68.5,28.91,WSW,242,0.0,0.0,100,0.00,,---,0.00,VWS V14.00,2013-07-08 09:47:00,
2013-07-08 04:48:00,68.5,68.5,28.91,WSW,242,0.0,0.0,100,0.00,,---,0.00,VWS V14.00,2013-07-08 09:48:00,
2013-07-08 04:49:00,68.5,68.5,28.91,WSW,242,0.0,0.0,100,0.00,,---,0.00,VWS V14.00,2013-07-08 09:49:00,
2013-07-08 04:50:00,68.5,68.5,28.91,WSW,242,0.0,0.0,100,0.00,,---,0.00,VWS V14.00,2013-07-08 09:50:00,
2013-07-08 04:51:00,68.5,68.5,28.91,WSW,242,0.0,0.0,100,0.00,,---,0.00,VWS V14.00,2013-07-08 09:51:00,
2013-07-08 04:52:00,68.5,68.5,28.91,WSW,242,0.0,0.0,100,0.00,,---,0.00,VWS V14.00,2013-07-08 09:52:00,
2013-07-08 04:53:00,68.5,68.5,28.91,WSW,242,0.0,0.0,100,0.00,,---,0.00,VWS V14.00,2013-07-08 09:53:00,
2013-07-08 04:54:00,68.5,68.5,28.91,WSW,242,0.0,0.0,100,0.00,,---,0.00,VWS V14.00,2013-07-08 09:54:00,
2013-07-08 04:55:00,68.5,68.5,28.91,WSW,242,0.0,0.0,100,0.00,,---,0.00,VWS V14.00,2013-07-08 09:55:00,
2013-07-08 04:56:00,68.5,68.5,28.91,WSW,242,0.0,0.0,100,0.00,,---,0.00,VWS V14.00,2013-07-08 09:56:00,
2013-07-08 04:57:00,68.5,68.5,28.91,WSW,242,0.0,0.0,100,0.00,,---,0.00,VWS V14.00,2013-07-08 09:57:00,
2013-07-08 04:58:00,68.5,68.5,28.91,WSW,242,0.0,0.0,100,0.00,,---,0.00,VWS V14.00,2013-07-08 09:58:00,
2013-07-08 04:59:00,68.5,68.5,28.91,WSW,242,0.0,0.0,100,0.00,,---,0.00,VWS V14.00,2013-07-08 09:59:00,
2013-07-08 05:01:00,68.5,68.5,28.91,WSW,242,0.0,0.0,100,0.00,,---,0.00,VWS V14.00,2013-07-08 10:01:00,
2013-07-08 05:02:00,68.7,68.7,28.91,WSW,242,0.0,0.0,100,0.00,,---,0.00,VWS V14.00,2013-07-08 10:02:00,
2013-07-08 05:03:00,68.7,68.7,28.91,WSW,242,0.0,0.0,100,0.00,,---,0.00,VWS V14.00,2013-07-08 10:03:00,
2013-07-08 05:04:00,68.7,68.7,28.91,WSW,242,0.0,0.0,100,0.00,,---,0.00,VWS V14.00,2013-07-08 10:04:00,
2013-07-08 05:06:00,68.7,68.7,28.91,WSW,242,0.0,0.0,100,0.00,,---,0.00,VWS V14.00,2013-07-08 10:06:00,
2013-07-08 05:07:00,68.5,68.5,28.91,WSW,241,0.0,0.0,100,0.00,,---,0.00,VWS V14.00,2013-07-08 10:07:00,
2013-07-08 05:08:00,68.5,68.5,28.91,WSW,242,0.0,0.0,100,0.00,,---,0.00,VWS V14.00,2013-07-08 10:08:00,
2013-07-08 05:09:00,68.5,68.5,28.91,WSW,242,0.0,0.0,100,0.00,,---,0.00,VWS V14.00,2013-07-08 10:09:00,
2013-07-08 05:10:00,68.7,68.7,28.91,WSW,242,0.0,0.0,100,0.00,,---,0.00,VWS V14.00,2013-07-08 10:10:00,
2013-07-08 05:11:00,68.7,68.7,28.91,WSW,241,0.0,0.0,100,0.00,,---,0.00,VWS V14.00,2013-07-08 10:11:00,
2013-07-08 05:12:00,68.7,68.7,28.91,WSW,242,0.0,0.0,100,0.00,,---,0.00,VWS V14.00,2013-07-08 10:12:00,
2013-07-08 05:13:00,68.7,68.7,28.91,WSW,242,0.0,0.0,100,0.00,,---,0.00,VWS V14.00,2013-07-08 10:13:00,
2013-07-08 05:14:00,68.7,68.7,28.91,WSW,242,0.0,0.0,100,0.00,,---,0.00,VWS V14.00,2013-07-08 10:14:00,
2013-07-08 05:16:00,68.7,68.7,28.91,WSW,242,0.0,0.0,100,0.00,,---,0.00,VWS V14.00,2013-07-08 10:16:00,
2013-07-08 05:17:00,68.7,68.7,28.91,WSW,242,0.0,0.0,100,0.00,,---,0.00,VWS V14.00,2013-07-08 10:17:00,
2013-07-08 05:18:00,68.7,68.7,28.91,WSW,242,0.0,0.0,100,0.00,,---,0.00,VWS V14.00,2013-07-08 10:18:00,
2013-07-08 05:19:00,68.7,68.7,28.91,WSW,242,0.0,0.0,100,0.00,,---,0.00,VWS V14.00,2013-07-08 10:19:00,
2013-07-08 05:20:00,68.7,68.7,28.91,WSW,241,0.0,0.0,100,0.00,,---,0.00,VWS V14.00,2013-07-08 10:20:00,
2013-07-08 05:22:00,68.5,68.5,28.91,WSW,242,0.0,0.0,100,0.00,,---,0.00,VWS V14.00,2013-07-08 10:22:00,
2013-07-08 05:23:00,68.5,68.5,28.91,WSW,241,0.0,0.0,100,0.00,,---,0.00,VWS V14.00,2013-07-08 10:23:00,
2013-07-08 05:24:00,68.5,68.5,28.91,WSW,242,0.0,0.0,100,0.00,,---,0.00,VWS V14.00,2013-07-08 10:24:00,
2013-07-08 05:25:00,68.5,68.5,28.91,WSW,242,0.0,0.0,100,0.00,,---,0.00,VWS V14.00,2013-07-08 10:25:00,
2013-07-08 05:26:00,68.5,68.5,28.91,WSW,242,0.0,0.0,100,0.00,,---,0.00,VWS V14.00,2013-07-08 10:26:00,
2013-07-08 05:27:00,68.5,68.5,28.91,WSW,242,0.0,0.0,100,0.00,,---,0.00,VWS V14.00,2013-07-08 10:27:00,
2013-07-08 05:28:00,68.5,68.5,28.91,WSW,242,0.0,0.0,100,0.00,,---,0.00,VWS V14.00,2013-07-08 10:28:00,
2013-07-08 05:29:00,68.5,68.5,28.91,WSW,242,0.0,0.0,100,0.00,,---,0.00,VWS V14.00,2013-07-08 10:29:00,
2013-07-08 05:31:00,68.4,68.4,28.91,WSW,241,0.0,0.0,100,0.00,,---,0.00,VWS V14.00,2013-07-08 10:31:00,
2013-07-08 05:33:00,68.4,68.4,28.91,WSW,242,0.0,0.0,100,0.00,,---,0.00,VWS V14.00,2013-07-08 10:33:00,
2013-07-08 05:34:00,68.4,68.4,28.91,WSW,241,0.0,0.0,100,0.00,,---,0.00,VWS V14.00,2013-07-08 10:34:00,
2013-07-08 05:35:00,68.4,68.4,28.91,WSW,242,0.0,0.0,100,0.00,,---,0.00,VWS V14.00,2013-07-08 10:35:00,
2013-07-08 05:37:00,68.4,68.4,28.91,WSW,241,0.0,0.0,100,0.00,,---,0.00,VWS V14.00,2013-07-08 10:37:00,
2013-07-08 05:38:00,68.4,68.4,28.91,WSW,242,0.0,0.0,100,0.00,,---,0.00,VWS V14.00,2013-07-08 10:38:00,
2013-07-08 05:39:00,68.4,68.4,28.91,WSW,242,0.0,0.0,100,0.00,,---,0.00,VWS V14.00,2013-07-08 10:39:00,
2013-07-08 05:40:00,68.4,68.4,28.91,WSW,241,0.0,0.0,100,0.00,,---,0.00,VWS V14.00,2013-07-08 10:40:00,
2013-07-08 05:41:00,68.4,68.4,28.91,WSW,242,0.0,0.0,100,0.00,,---,0.00,VWS V14.00,2013-07-08 10:41:00,
2013-07-08 05:43:00,68.4,68.4,28.91,WSW,241,0.0,0.0,100,0.00,,---,0.00,VWS V14.00,2013-07-08 10:43:00,
2013-07-08 05:44:00,68.4,68.4,28.91,WSW,242,0.0,0.0,100,0.00,,---,0.00,VWS V14.00,2013-07-08 10:44:00,
2013-07-08 05:45:00,68.4,68.4,28.91,WSW,242,0.0,0.0,100,0.00,,---,0.00,VWS V14.00,2013-07-08 10:45:00,
2013-07-08 05:47:00,68.4,68.4,28.91,WSW,242,0.0,0.0,100,0.00,,---,0.00,VWS V14.00,2013-07-08 10:47:00,
2013-07-08 05:48:00,68.4,68.4,28.91,WSW,242,0.0,0.0,100,0.00,,---,0.00,VWS V14.00,2013-07-08 10:48:00,
2013-07-08 05:49:00,68.4,68.4,28.91,WSW,242,0.0,0.0,100,0.00,,---,0.00,VWS V14.00,2013-07-08 10:49:00,
2013-07-08 05:50:00,68.4,68.4,28.91,WSW,242,0.0,0.0,100,0.00,,---,0.00,VWS V14.00,2013-07-08 10:50:00,
2013-07-08 05:51:00,68.2,68.2,28.91,WSW,241,0.0,0.0,100,0.00,,---,0.00,VWS V14.00,2013-07-08 10:51:00,
2013-07-08 05:52:00,68.2,68.2,28.91,WSW,242,0.0,0.0,100,0.00,,---,0.00,VWS V14.00,2013-07-08 10:52:00,
2013-07-08 05:53:00,68.2,68.2,28.91,WSW,242,0.0,0.0,100,0.00,,---,0.00,VWS V14.00,2013-07-08 10:53:00,
2013-07-08 05:54:00,68.2,68.2,28.91,WSW,242,0.0,0.0,100,0.00,,---,0.00,VWS V14.00,2013-07-08 10:54:00,
2013-07-08 05:55:00,68.2,68.2,28.91,WSW,242,0.0,0.0,100,0.00,,---,0.00,VWS V14.00,2013-07-08 10:55:00,
2013-07-08 05:57:00,68.2,68.2,28.91,WSW,242,0.0,0.0,100,0.00,,---,0.00,VWS V14.00,2013-07-08 10:57:00,
2013-07-08 05:58:00,68.2,68.2,28.91,WSW,242,0.0,0.0,100,0.00,,---,0.00,VWS V14.00,2013-07-08 10:58:00,
2013-07-08 05:59:00,68.2,68.2,28.91,WSW,242,0.0,0.0,100,0.00,,---,0.00,VWS V14.00,2013-07-08 10:59:00,
2013-07-08 06:00:00,68.2,68.2,28.91,WSW,242,0.0,0.0,100,0.00,,---,0.00,VWS V14.00,2013-07-08 11:00:00,
2013-07-08 06:01:00,68.2,68.2,28.91,WSW,241,0.0,0.0,100,0.00,,---,0.00,VWS V14.00,2013-07-08 11:01:00,
2013-07-08 06:02:00,68.4,68.4,28.91,WSW,241,0.0,0.0,100,0.00,,---,0.00,VWS V14.00,2013-07-08 11:02:00,
2013-07-08 06:03:00,68.4,68.4,28.91,WSW,242,0.0,0.0,100,0.00,,---,0.00,VWS V14.00,2013-07-08 11:03:00,
2013-07-08 06:04:00,68.4,68.4,28.91,WSW,241,0.0,0.0,100,0.00,,---,0.00,VWS V14.00,2013-07-08 11:04:00,
2013-07-08 06:05:00,68.4,68.4,28.91,WSW,242,0.0,0.0,100,0.00,,---,0.00,VWS V14.00,2013-07-08 11:05:00,
2013-07-08 06:07:00,68.5,68.5,28.91,WSW,241,0.0,0.0,100,0.00,,---,0.00,VWS V14.00,2013-07-08 11:07:00,
2013-07-08 06:08:00,68.7,68.7,28.91,WSW,242,0.0,0.0,100,0.00,,---,0.00,VWS V14.00,2013-07-08 11:08:00,
2013-07-08 06:09:00,68.7,68.7,28.91,WSW,242,0.0,0.0,100,0.00,,---,0.00,VWS V14.00,2013-07-08 11:09:00,
2013-07-08 06:10:00,68.7,68.7,28.91,WSW,242,0.0,0.0,100,0.00,,---,0.00,VWS V14.00,2013-07-08 11:10:00,
2013-07-08 06:11:00,68.7,68.7,28.91,WSW,242,0.0,0.0,100,0.00,,---,0.00,VWS V14.00,2013-07-08 11:11:00,
2013-07-08 06:12:00,68.9,68.9,28.91,WSW,241,0.0,0.0,100,0.00,,---,0.00,VWS V14.00,2013-07-08 11:12:00,
2013-07-08 06:13:00,68.9,68.9,28.91,WSW,242,0.0,0.0,100,0.00,,---,0.00,VWS V14.00,2013-07-08 11:13:00,
2013-07-08 06:14:00,69.1,69.1,28.91,WSW,241,0.0,0.0,100,0.00,,---,0.00,VWS V14.00,2013-07-08 11:14:00,
2013-07-08 06:15:00,69.1,69.1,28.91,WSW,242,0.0,0.0,100,0.00,,---,0.00,VWS V14.00,2013-07-08 11:15:00,
2013-07-08 06:16:00,69.1,69.1,28.91,WSW,241,0.0,0.0,100,0.00,,---,0.00,VWS V14.00,2013-07-08 11:16:00,
2013-07-08 06:17:00,69.3,69.3,28.91,WSW,242,0.0,0.0,100,0.00,,---,0.00,VWS V14.00,2013-07-08 11:17:00,
2013-07-08 06:18:00,69.3,69.3,28.91,WSW,242,0.0,0.0,100,0.00,,---,0.00,VWS V14.00,2013-07-08 11:18:00,
2013-07-08 06:20:00,69.4,69.4,28.91,WSW,241,0.0,0.0,100,0.00,,---,0.00,VWS V14.00,2013-07-08 11:20:00,
2013-07-08 06:21:00,69.4,69.4,28.91,WSW,242,0.0,0.0,100,0.00,,---,0.00,VWS V14.00,2013-07-08 11:21:00,
2013-07-08 06:23:00,69.6,69.6,28.91,WSW,242,0.0,0.0,100,0.00,,---,0.00,VWS V14.00,2013-07-08 11:23:00,
2013-07-08 06:24:00,69.6,69.6,28.91,WSW,242,0.0,0.0,100,0.00,,---,0.00,VWS V14.00,2013-07-08 11:24:00,
2013-07-08 06:25:00,69.6,69.6,28.91,WSW,242,0.0,0.0,100,0.00,,---,0.00,VWS V14.00,2013-07-08 11:25:00,
2013-07-08 06:26:00,69.8,69.8,28.91,WSW,241,0.0,0.0,100,0.00,,---,0.00,VWS V14.00,2013-07-08 11:26:00,
2013-07-08 06:27:00,69.8,69.8,28.91,WSW,242,0.0,0.0,100,0.00,,---,0.00,VWS V14.00,2013-07-08 11:27:00,
2013-07-08 06:28:00,69.8,69.8,28.91,WSW,242,0.0,0.0,100,0.00,,---,0.00,VWS V14.00,2013-07-08 11:28:00,
2013-07-08 06:29:00,70.0,70.0,28.91,WSW,242,0.0,0.0,100,0.00,,---,0.00,VWS V14.00,2013-07-08 11:29:00,
2013-07-08 06:30:00,70.0,70.0,28.91,WSW,242,0.0,0.0,100,0.00,,---,0.00,VWS V14.00,2013-07-08 11:30:00,
2013-07-08 06:31:00,70.0,70.0,28.91,WSW,241,0.0,0.0,100,0.00,,---,0.00,VWS V14.00,2013-07-08 11:31:00,
2013-07-08 06:32:00,70.0,70.0,28.91,WSW,241,0.0,0.0,100,0.00,,---,0.00,VWS V14.00,2013-07-08 11:32:00,
2013-07-08 06:33:00,70.2,70.2,28.91,WSW,241,0.0,0.0,100,0.00,,---,0.00,VWS V14.00,2013-07-08 11:33:00,
2013-07-08 06:34:00,70.2,70.2,28.91,WSW,241,0.0,0.0,100,0.00,,---,0.00,VWS V14.00,2013-07-08 11:34:00,
2013-07-08 06:35:00,70.3,70.3,28.91,WSW,241,0.0,0.0,100,0.00,,---,0.00,VWS V14.00,2013-07-08 11:35:00,
2013-07-08 06:36:00,70.3,70.3,28.91,WSW,242,0.0,0.0,100,0.00,,---,0.00,VWS V14.00,2013-07-08 11:36:00,
2013-07-08 06:37:00,70.3,70.3,28.91,WSW,242,0.0,0.0,100,0.00,,---,0.00,VWS V14.00,2013-07-08 11:37:00,
2013-07-08 06:39:00,70.3,70.3,28.91,WSW,244,0.0,0.0,100,0.00,,---,0.00,VWS V14.00,2013-07-08 11:39:00,
2013-07-08 06:40:00,70.5,70.5,28.91,WSW,241,0.0,0.0,100,0.00,,---,0.00,VWS V14.00,2013-07-08 11:40:00,
2013-07-08 06:41:00,70.5,70.5,28.91,WSW,241,0.0,0.0,100,0.00,,---,0.00,VWS V14.00,2013-07-08 11:41:00,
2013-07-08 06:42:00,70.5,70.5,28.91,WSW,241,0.0,0.0,100,0.00,,---,0.00,VWS V14.00,2013-07-08 11:42:00,
2013-07-08 06:44:00,70.7,70.7,28.91,WSW,241,0.0,0.0,100,0.00,,---,0.00,VWS V14.00,2013-07-08 11:44:00,
2013-07-08 06:45:00,70.9,70.9,28.91,WSW,241,0.0,0.0,100,0.00,,---,0.00,VWS V14.00,2013-07-08 11:45:00,
2013-07-08 06:46:00,70.9,70.9,28.91,WSW,244,0.0,0.0,100,0.00,,---,0.00,VWS V14.00,2013-07-08 11:46:00,
2013-07-08 06:47:00,70.9,70.9,28.91,West,265,0.0,0.0,100,0.00,,---,0.00,VWS V14.00,2013-07-08 11:47:00,
2013-07-08 06:48:00,71.1,71.1,28.91,West,265,0.0,0.0,100,0.00,,---,0.00,VWS V14.00,2013-07-08 11:48:00,
2013-07-08 06:49:00,71.1,71.1,28.91,West,265,2.2,3.1,100,0.00,,---,0.00,VWS V14.00,2013-07-08 11:49:00,
2013-07-08 06:50:00,71.2,71.2,28.91,West,265,0.0,0.0,100,0.00,,---,0.00,VWS V14.00,2013-07-08 11:50:00,
2013-07-08 06:51:00,71.2,71.2,28.91,West,265,0.0,0.0,100,0.00,,---,0.00,VWS V14.00,2013-07-08 11:51:00,
2013-07-08 06:53:00,71.4,71.4,28.91,West,265,0.0,0.0,100,0.00,,---,0.00,VWS V14.00,2013-07-08 11:53:00,
2013-07-08 06:54:00,71.6,71.6,28.91,West,264,0.0,0.0,100,0.00,,---,0.00,VWS V14.00,2013-07-08 11:54:00,
2013-07-08 06:55:00,71.6,71.6,28.91,West,264,0.0,0.0,100,0.00,,---,0.00,VWS V14.00,2013-07-08 11:55:00,
2013-07-08 06:56:00,71.6,71.6,28.91,West,264,0.0,0.0,100,0.00,,---,0.00,VWS V14.00,2013-07-08 11:56:00,
2013-07-08 06:57:00,71.6,71.6,28.91,West,264,0.0,0.0,100,0.00,,---,0.00,VWS V14.00,2013-07-08 11:57:00,
2013-07-08 06:58:00,71.8,71.8,28.91,West,259,0.0,0.0,100,0.00,,---,0.00,VWS V14.00,2013-07-08 11:58:00,
2013-07-08 06:59:00,71.8,71.8,28.91,West,265,0.0,0.0,100,0.00,,---,0.00,VWS V14.00,2013-07-08 11:59:00,
2013-07-08 07:00:00,72.0,72.0,28.91,West,265,2.7,3.1,100,0.00,,---,0.00,VWS V14.00,2013-07-08 12:00:00,
2013-07-08 07:01:00,72.0,72.0,28.91,West,266,0.0,3.6,100,0.00,,---,0.00,VWS V14.00,2013-07-08 12:01:00,
2013-07-08 07:02:00,72.0,72.0,28.91,West,266,0.0,0.0,100,0.00,,---,0.00,VWS V14.00,2013-07-08 12:02:00,
2013-07-08 07:03:00,72.1,72.1,28.91,West,266,0.0,0.0,100,0.00,,---,0.00,VWS V14.00,2013-07-08 12:03:00,
2013-07-08 07:04:00,72.3,71.1,28.91,West,266,0.0,0.0,96,0.00,,---,0.00,VWS V14.00,2013-07-08 12:04:00,
2013-07-08 07:05:00,72.3,71.1,28.91,West,266,5.8,5.8,96,0.00,,---,0.00,VWS V14.00,2013-07-08 12:05:00,
2013-07-08 07:06:00,72.5,71.3,28.94,West,265,0.0,5.8,96,0.00,,---,0.00,VWS V14.00,2013-07-08 12:06:00,
2013-07-08 07:07:00,72.5,71.3,28.94,West,265,0.0,0.0,96,0.00,,---,0.00,VWS V14.00,2013-07-08 12:07:00,
2013-07-08 07:08:00,72.5,70.1,28.94,West,274,4.0,5.4,92,0.00,,---,0.00,VWS V14.00,2013-07-08 12:08:00,
2013-07-08 07:09:00,72.7,70.2,28.94,West,274,0.0,0.0,92,0.00,,---,0.00,VWS V14.00,2013-07-08 12:09:00,
2013-07-08 07:11:00,72.9,70.4,28.94,SW,228,2.2,2.2,92,0.00,,---,0.00,VWS V14.00,2013-07-08 12:11:00,
2013-07-08 07:12:00,72.9,70.4,28.94,West,275,0.0,2.2,92,0.00,,---,0.00,VWS V14.00,2013-07-08 12:12:00,
2013-07-08 07:14:00,73.2,70.8,28.94,West,275,0.0,0.0,92,0.00,,---,0.00,VWS V14.00,2013-07-08 12:14:00,
2013-07-08 07:15:00,73.2,70.8,28.94,West,275,0.0,0.0,92,0.00,,---,0.00,VWS V14.00,2013-07-08 12:15:00,
2013-07-08 07:16:00,73.2,70.8,28.94,West,275,0.0,0.0,92,0.00,,---,0.00,VWS V14.00,2013-07-08 12:16:00,
2013-07-08 07:17:00,73.4,70.9,28.94,West,275,0.0,0.0,92,0.00,,---,0.00,VWS V14.00,2013-07-08 12:17:00,
2013-07-08 07:18:00,73.4,70.9,28.94,West,275,3.6,3.6,92,0.00,,---,0.00,VWS V14.00,2013-07-08 12:18:00,
2013-07-08 07:19:00,73.6,69.8,28.94,West,276,3.1,3.6,88,0.00,,---,0.00,VWS V14.00,2013-07-08 12:19:00,
2013-07-08 07:21:00,73.6,69.8,28.94,West,276,3.1,3.1,88,0.00,,---,0.00,VWS V14.00,2013-07-08 12:21:00,
2013-07-08 07:22:00,73.6,69.8,28.94,West,276,2.7,3.1,88,0.00,,---,0.00,VWS V14.00,2013-07-08 12:22:00,
2013-07-08 07:23:00,73.8,70.0,28.94,West,268,3.6,4.0,88,0.00,,---,0.00,VWS V14.00,2013-07-08 12:23:00,
2013-07-08 07:24:00,73.8,70.0,28.94,West,268,0.0,3.6,88,0.00,,---,0.00,VWS V14.00,2013-07-08 12:24:00,
2013-07-08 07:25:00,73.8,70.0,28.94,West,280,4.0,4.0,88,0.00,,---,0.00,VWS V14.00,2013-07-08 12:25:00,
2013-07-08 07:26:00,73.8,70.0,28.94,WSW,244,4.9,4.9,88,0.00,,---,0.00,VWS V14.00,2013-07-08 12:26:00,
2013-07-08 07:27:00,73.8,70.0,28.94,West,271,2.7,2.7,88,0.00,,---,0.00,VWS V14.00,2013-07-08 12:27:00,
2013-07-08 07:28:00,73.8,70.0,28.94,West,269,4.5,4.5,88,0.00,,---,0.00,VWS V14.00,2013-07-08 12:28:00,
2013-07-08 07:29:00,73.8,70.0,28.94,West,270,2.2,4.5,88,0.00,,---,0.00,VWS V14.00,2013-07-08 12:29:00,
2013-07-08 07:30:00,73.8,70.0,28.94,WSW,252,3.6,5.4,88,0.00,,---,0.00,VWS V14.00,2013-07-08 12:30:00,
2013-07-08 07:31:00,73.9,70.2,28.94,WSW,254,4.9,4.9,88,0.00,,---,0.00,VWS V14.00,2013-07-08 12:31:00,
2013-07-08 07:32:00,73.9,70.2,28.94,West,262,5.4,5.4,88,0.00,,---,0.00,VWS V14.00,2013-07-08 12:32:00,
2013-07-08 07:33:00,73.9,70.2,28.94,West,265,2.2,5.8,88,0.00,,---,0.00,VWS V14.00,2013-07-08 12:33:00,
2013-07-08 07:34:00,74.1,70.3,28.94,West,265,0.0,3.1,88,0.00,,---,0.00,VWS V14.00,2013-07-08 12:34:00,
2013-07-08 07:35:00,74.3,70.5,28.94,West,265,0.0,0.0,88,0.00,,---,0.00,VWS V14.00,2013-07-08 12:35:00,
2013-07-08 07:36:00,74.5,70.7,28.94,West,265,0.0,0.0,88,0.00,,---,0.00,VWS V14.00,2013-07-08 12:36:00,
2013-07-08 07:37:00,74.5,70.7,28.94,West,265,0.0,0.0,88,0.00,,---,0.00,VWS V14.00,2013-07-08 12:37:00,
2013-07-08 07:38:00,74.8,71.1,28.94,West,266,6.7,6.7,88,0.00,,---,0.00,VWS V14.00,2013-07-08 12:38:00,
2013-07-08 07:39:00,75.0,69.9,28.94,West,266,3.1,4.0,84,0.00,,---,0.00,VWS V14.00,2013-07-08 12:39:00,
2013-07-08 07:40:00,75.2,70.0,28.94,West,278,4.0,4.0,84,0.00,,---,0.00,VWS V14.00,2013-07-08 12:40:00,
2013-07-08 07:41:00,75.4,70.2,28.94,South,187,3.1,4.0,84,0.00,,---,0.00,VWS V14.00,2013-07-08 12:41:00,
2013-07-08 07:42:00,75.7,70.6,28.94,South,178,2.2,4.9,84,0.00,,---,0.00,VWS V14.00,2013-07-08 12:42:00,
2013-07-08 07:43:00,75.7,70.6,28.94,SW,228,2.7,7.6,84,0.00,,---,0.00,VWS V14.00,2013-07-08 12:43:00,
2013-07-08 07:45:00,75.9,70.7,28.94,West,272,3.6,3.6,84,0.00,,---,0.00,VWS V14.00,2013-07-08 12:45:00,
2013-07-08 07:46:00,75.9,70.7,28.94,West,260,5.8,5.8,84,0.00,,---,0.00,VWS V14.00,2013-07-08 12:46:00,
2013-07-08 07:47:00,76.1,70.9,28.94,West,268,2.7,5.8,84,0.00,,---,0.00,VWS V14.00,2013-07-08 12:47:00,
2013-07-08 07:48:00,76.1,70.9,28.94,West,261,5.4,5.8,84,0.00,,---,0.00,VWS V14.00,2013-07-08 12:48:00,
2013-07-08 07:49:00,76.3,71.1,28.94,WSW,254,4.0,6.3,84,0.00,,---,0.00,VWS V14.00,2013-07-08 12:49:00,
2013-07-08 07:50:00,76.5,71.3,28.94,SW,228,2.2,2.2,84,0.00,,---,0.00,VWS V14.00,2013-07-08 12:50:00,
2013-07-08 07:51:00,76.5,71.3,28.94,WSW,256,2.7,2.7,84,0.00,,---,0.00,VWS V14.00,2013-07-08 12:51:00,
2013-07-08 07:52:00,76.6,71.4,28.94,WNW,288,3.1,5.8,84,0.00,,---,0.00,VWS V14.00,2013-07-08 12:52:00,
2013-07-08 07:53:00,76.6,71.4,28.94,West,280,3.6,3.6,84,0.00,,---,0.00,VWS V14.00,2013-07-08 12:53:00,
2013-07-08 07:54:00,76.8,71.6,28.94,SSW,201,4.0,4.0,84,0.00,,---,0.00,VWS V14.00,2013-07-08 12:54:00,
2013-07-08 07:56:00,77.2,70.5,28.94,WSW,258,2.7,4.0,80,0.00,,---,0.00,VWS V14.00,2013-07-08 12:56:00,
2013-07-08 07:57:00,77.7,71.1,28.94,SW,216,2.7,5.4,80,0.00,,---,0.00,VWS V14.00,2013-07-08 12:57:00,
2013-07-08 07:58:00,77.9,71.2,28.94,SW,232,2.7,2.7,80,0.00,,---,0.00,VWS V14.00,2013-07-08 12:58:00,
2013-07-08 07:59:00,77.9,71.2,28.94,SSW,204,3.1,3.6,80,0.00,,---,0.00,VWS V14.00,2013-07-08 12:59:00,
2013-07-08 08:00:00,78.1,71.4,28.94,West,269,3.1,3.1,80,0.00,,---,0.00,VWS V14.00,2013-07-08 13:00:00,
2013-07-08 08:01:00,78.3,71.6,28.94,WSW,240,4.9,4.9,80,0.00,,---,0.00,VWS V14.00,2013-07-08 13:01:00,
2013-07-08 08:02:00,78.3,71.6,28.94,West,273,4.0,4.0,80,0.00,,---,0.00,VWS V14.00,2013-07-08 13:02:00,
2013-07-08 08:03:00,78.3,71.6,28.94,West,268,3.1,4.0,80,0.00,,---,0.00,VWS V14.00,2013-07-08 13:03:00,
2013-07-08 08:04:00,78.3,71.6,28.94,West,275,0.0,3.6,80,0.00,,---,0.00,VWS V14.00,2013-07-08 13:04:00,
2013-07-08 08:06:00,78.4,71.8,28.94,WSW,241,2.7,2.7,80,0.00,,---,0.00,VWS V14.00,2013-07-08 13:06:00,
2013-07-08 08:07:00,78.8,72.1,28.94,SSW,208,2.7,2.7,80,0.00,,---,0.00,VWS V14.00,2013-07-08 13:07:00,
2013-07-08 08:08:00,78.8,72.1,28.94,West,262,3.1,3.1,80,0.00,,---,0.00,VWS V14.00,2013-07-08 13:08:00,
2013-07-08 08:09:00,79.0,72.3,28.94,WSW,255,3.1,4.0,80,0.00,,---,0.00,VWS V14.00,2013-07-08 13:09:00,
2013-07-08 08:11:00,78.8,72.1,28.94,WSW,253,3.1,4.9,80,0.00,,---,0.00,VWS V14.00,2013-07-08 13:11:00,
2013-07-08 08:13:00,78.6,71.9,28.94,SW,214,8.1,8.1,80,0.00,,---,0.00,VWS V14.00,2013-07-08 13:13:00,
2013-07-08 08:14:00,78.4,71.8,28.94,SSW,197,5.4,5.4,80,0.00,,---,0.00,VWS V14.00,2013-07-08 13:14:00,
2013-07-08 08:15:00,78.6,71.9,28.94,WSW,258,0.0,4.0,80,0.00,,---,0.00,VWS V14.00,2013-07-08 13:15:00,
2013-07-08 08:16:00,78.8,72.1,28.94,West,268,4.0,4.9,80,0.00,,---,0.00,VWS V14.00,2013-07-08 13:16:00,
2013-07-08 08:18:00,78.8,72.1,28.94,West,275,3.6,8.7,80,0.00,,---,0.00,VWS V14.00,2013-07-08 13:18:00,
2013-07-08 08:19:00,79.0,72.3,28.94,WSW,252,3.6,6.3,80,0.00,,---,0.00,VWS V14.00,2013-07-08 13:19:00,
2013-07-08 08:20:00,79.2,72.5,28.94,SSW,213,3.1,3.6,80,0.00,,---,0.00,VWS V14.00,2013-07-08 13:20:00,
2013-07-08 08:21:00,79.0,72.3,28.94,WSW,253,8.3,8.3,80,0.00,,---,0.00,VWS V14.00,2013-07-08 13:21:00,
2013-07-08 08:23:00,79.0,72.3,28.94,SSW,210,3.1,8.3,80,0.00,,---,0.00,VWS V14.00,2013-07-08 13:23:00,
2013-07-08 08:24:00,79.0,72.3,28.94,West,259,2.7,4.0,80,0.00,,---,0.00,VWS V14.00,2013-07-08 13:24:00,
2013-07-08 08:26:00,79.2,72.5,28.94,West,277,3.1,3.1,80,0.00,,---,0.00,VWS V14.00,2013-07-08 13:26:00,
2013-07-08 08:28:00,79.3,72.6,28.94,West,277,0.0,0.0,80,0.00,,---,0.00,VWS V14.00,2013-07-08 13:28:00,
2013-07-08 08:29:00,79.5,72.8,28.94,West,259,3.6,4.0,80,0.00,,---,0.00,VWS V14.00,2013-07-08 13:29:00,
2013-07-08 08:31:00,79.9,73.2,28.94,SSW,199,3.6,4.9,80,0.00,,---,0.00,VWS V14.00,2013-07-08 13:31:00,
2013-07-08 08:32:00,80.2,73.5,28.94,SW,223,2.7,5.4,80,0.00,,---,0.00,VWS V14.00,2013-07-08 13:32:00,
2013-07-08 08:33:00,80.4,73.7,28.94,SW,228,2.2,3.1,80,0.00,,---,0.00,VWS V14.00,2013-07-08 13:33:00,
2013-07-08 08:34:00,80.6,69.1,28.94,WSW,257,5.4,7.6,68,0.00,,---,0.00,VWS V14.00,2013-07-08 13:34:00,
2013-07-08 08:35:00,80.8,72.5,28.94,WSW,257,2.2,5.4,76,0.00,,---,0.00,VWS V14.00,2013-07-08 13:35:00,
2013-07-08 08:36:00,80.8,72.5,28.94,SSW,201,3.1,3.1,76,0.00,,---,0.00,VWS V14.00,2013-07-08 13:36:00,
2013-07-08 08:37:00,81.1,69.6,28.94,SW,234,3.6,4.0,68,0.00,,---,0.00,VWS V14.00,2013-07-08 13:37:00,
2013-07-08 08:38:00,81.5,73.2,28.94,SSW,201,0.0,3.1,76,0.00,,---,0.00,VWS V14.00,2013-07-08 13:38:00,
2013-07-08 08:39:00,81.7,70.1,28.94,SSW,201,0.0,2.2,68,0.00,,---,0.00,VWS V14.00,2013-07-08 13:39:00,
2013-07-08 08:40:00,81.9,70.3,28.94,SW,220,2.7,3.1,68,0.00,,---,0.00,VWS V14.00,2013-07-08 13:40:00,
2013-07-08 08:41:00,81.9,70.3,28.94,WSW,257,8.3,8.3,68,0.00,,---,0.00,VWS V14.00,2013-07-08 13:41:00,
2013-07-08 08:42:00,81.7,70.1,28.94,WSW,253,4.9,6.3,68,0.00,,---,0.00,VWS V14.00,2013-07-08 13:42:00,
2013-07-08 08:43:00,81.7,70.1,28.94,SSW,194,2.7,2.7,68,0.00,,---,0.00,VWS V14.00,2013-07-08 13:43:00,
2013-07-08 08:44:00,81.7,70.1,28.94,West,264,2.7,4.0,68,0.00,,---,0.00,VWS V14.00,2013-07-08 13:44:00,
2013-07-08 08:47:00,81.7,70.1,28.94,WSW,256,7.2,7.2,68,0.00,,---,0.00,VWS V14.00,2013-07-08 13:47:00,
2013-07-08 08:48:00,81.5,69.9,28.94,WSW,254,3.6,5.8,68,0.00,,---,0.00,VWS V14.00,2013-07-08 13:48:00,
2013-07-08 08:49:00,81.3,69.8,28.94,WNW,303,5.8,7.6,68,0.00,,---,0.00,VWS V14.00,2013-07-08 13:49:00,
2013-07-08 08:50:00,81.1,69.6,28.94,WNW,285,3.1,5.8,68,0.00,,---,0.00,VWS V14.00,2013-07-08 13:50:00,
2013-07-08 08:52:00,80.8,69.2,28.91,WNW,303,5.4,7.6,68,0.00,,---,0.00,VWS V14.00,2013-07-08 13:52:00,
2013-07-08 08:53:00,80.6,69.1,28.91,WNW,293,3.1,3.1,68,0.00,,---,0.00,VWS V14.00,2013-07-08 13:53:00,
2013-07-08 08:54:00,80.4,68.9,28.91,SW,215,6.3,8.3,68,0.00,,---,0.00,VWS V14.00,2013-07-08 13:54:00,
2013-07-08 08:55:00,80.4,68.9,28.91,SW,227,3.1,8.3,68,0.00,,---,0.00,VWS V14.00,2013-07-08 13:55:00,
2013-07-08 08:56:00,80.8,69.2,28.91,SW,234,2.7,3.1,68,0.00,,---,0.00,VWS V14.00,2013-07-08 13:56:00,
2013-07-08 08:57:00,81.1,69.6,28.91,SSW,208,4.9,4.9,68,0.00,,---,0.00,VWS V14.00,2013-07-08 13:57:00,
2013-07-08 08:58:00,81.3,69.8,28.91,SSW,211,3.6,4.0,68,0.00,,---,0.00,VWS V14.00,2013-07-08 13:58:00,
2013-07-08 08:59:00,81.5,69.9,28.91,SW,232,5.4,5.4,68,0.00,,---,0.00,VWS V14.00,2013-07-08 13:59:00,
2013-07-08 09:00:00,81.5,69.9,28.91,West,276,3.1,5.4,68,0.00,,---,0.00,VWS V14.00,2013-07-08 14:00:00,
2013-07-08 09:01:00,81.7,70.1,28.91,WSW,245,8.1,8.1,68,0.00,,---,0.00,VWS V14.00,2013-07-08 14:01:00,
2013-07-08 09:02:00,81.7,70.1,28.91,West,261,3.6,8.1,68,0.00,,---,0.00,VWS V14.00,2013-07-08 14:02:00,
2013-07-08 09:03:00,81.7,70.1,28.91,WSW,249,4.0,6.3,68,0.00,,---,0.00,VWS V14.00,2013-07-08 14:03:00,
2013-07-08 09:04:00,81.7,70.1,28.91,SSW,212,4.0,7.6,68,0.00,,---,0.00,VWS V14.00,2013-07-08 14:04:00,
2013-07-08 09:05:00,81.7,70.1,28.91,West,279,4.0,7.6,68,0.00,,---,0.00,VWS V14.00,2013-07-08 14:05:00,
2013-07-08 09:08:00,82.0,70.4,28.94,West,267,3.6,3.6,68,0.00,,---,0.00,VWS V14.00,2013-07-08 14:08:00,
2013-07-08 09:09:00,82.2,70.6,28.94,WSW,244,4.0,5.4,68,0.00,,---,0.00,VWS V14.00,2013-07-08 14:09:00,
2013-07-08 09:10:00,82.4,69.0,28.94,SSW,204,3.6,3.6,64,0.00,,---,0.00,VWS V14.00,2013-07-08 14:10:00,
2013-07-08 09:13:00,82.9,69.5,28.94,WNW,302,4.0,4.0,64,0.00,,---,0.00,VWS V14.00,2013-07-08 14:13:00,
2013-07-08 09:14:00,83.1,69.7,28.94,West,271,2.7,3.1,64,0.00,,---,0.00,VWS V14.00,2013-07-08 14:14:00,
2013-07-08 09:15:00,83.1,69.7,28.94,WSW,258,2.7,3.1,64,0.00,,---,0.00,VWS V14.00,2013-07-08 14:15:00,
2013-07-08 09:16:00,83.1,69.7,28.94,WSW,244,2.7,4.0,64,0.00,,---,0.00,VWS V14.00,2013-07-08 14:16:00,
2013-07-08 09:17:00,83.3,69.9,28.94,WNW,299,4.0,4.0,64,0.00,,---,0.00,VWS V14.00,2013-07-08 14:17:00,
2013-07-08 09:18:00,83.3,69.9,28.94,SSW,200,6.3,6.3,64,0.00,,---,0.00,VWS V14.00,2013-07-08 14:18:00,
2013-07-08 09:19:00,83.3,69.9,28.94,South,179,2.7,6.3,64,0.00,,---,0.00,VWS V14.00,2013-07-08 14:19:00,
2013-07-08 09:20:00,83.3,69.9,28.94,SW,225,5.8,5.8,64,0.00,,---,0.00,VWS V14.00,2013-07-08 14:20:00,
2013-07-08 09:21:00,83.3,69.9,28.94,NW,306,2.7,5.8,64,0.00,,---,0.00,VWS V14.00,2013-07-08 14:21:00,
2013-07-08 09:22:00,83.1,69.7,28.94,WNW,283,7.6,7.6,64,0.00,,---,0.00,VWS V14.00,2013-07-08 14:22:00,
2013-07-08 09:23:00,82.8,69.3,28.94,WNW,297,10.1,10.1,64,0.00,,---,0.00,VWS V14.00,2013-07-08 14:23:00,
2013-07-08 09:24:00,82.6,69.2,28.94,NNW,334,8.1,10.1,64,0.00,,---,0.00,VWS V14.00,2013-07-08 14:24:00,
2013-07-08 09:25:00,82.2,70.6,28.94,WSW,245,4.9,9.6,68,0.00,,---,0.00,VWS V14.00,2013-07-08 14:25:00,
2013-07-08 09:27:00,82.4,69.0,28.94,WNW,291,2.2,4.9,64,0.00,,---,0.00,VWS V14.00,2013-07-08 14:27:00,
2013-07-08 09:28:00,82.6,69.2,28.94,West,281,4.0,8.1,64,0.00,,---,0.00,VWS V14.00,2013-07-08 14:28:00,
2013-07-08 09:29:00,82.8,69.3,28.94,SW,230,3.6,8.1,64,0.00,,---,0.00,VWS V14.00,2013-07-08 14:29:00,
2013-07-08 09:30:00,82.8,69.3,28.94,WSW,253,3.6,3.6,64,0.00,,---,0.00,VWS V14.00,2013-07-08 14:30:00,
2013-07-08 09:32:00,82.6,69.2,28.94,WNW,285,3.6,8.3,64,0.00,,---,0.00,VWS V14.00,2013-07-08 14:32:00,
2013-07-08 09:33:00,82.6,69.2,28.94,WSW,257,4.0,4.0,64,0.00,,---,0.00,VWS V14.00,2013-07-08 14:33:00,
2013-07-08 09:34:00,82.6,69.2,28.94,WNW,287,3.6,4.0,64,0.00,,---,0.00,VWS V14.00,2013-07-08 14:34:00,
2013-07-08 09:35:00,82.4,69.0,28.94,West,271,3.1,3.1,64,0.00,,---,0.00,VWS V14.00,2013-07-08 14:35:00,
2013-07-08 09:38:00,82.4,69.0,28.94,SSW,203,0.0,0.0,64,0.00,,---,0.00,VWS V14.00,2013-07-08 14:38:00,
2013-07-08 09:39:00,82.6,69.2,28.94,SW,230,3.6,3.6,64,0.00,,---,0.00,VWS V14.00,2013-07-08 14:39:00,
2013-07-08 09:40:00,82.6,69.2,28.94,WNW,286,4.0,5.4,64,0.00,,---,0.00,VWS V14.00,2013-07-08 14:40:00,
2013-07-08 09:41:00,82.6,69.2,28.94,NW,312,4.0,6.3,64,0.00,,---,0.00,VWS V14.00,2013-07-08 14:41:00,
2013-07-08 09:43:00,82.4,69.0,28.94,West,263,8.7,8.7,64,0.00,,---,0.00,VWS V14.00,2013-07-08 14:43:00,
2013-07-08 09:44:00,82.4,69.0,28.94,WSW,246,8.3,10.1,64,0.00,,---,0.00,VWS V14.00,2013-07-08 14:44:00,
2013-07-08 09:45:00,82.0,70.4,28.94,WSW,243,3.6,8.1,68,0.00,,---,0.00,VWS V14.00,2013-07-08 14:45:00,
2013-07-08 09:46:00,82.2,70.6,28.94,West,275,8.1,8.3,68,0.00,,---,0.00,VWS V14.00,2013-07-08 14:46:00,
2013-07-08 09:47:00,82.4,69.0,28.94,WSW,248,3.6,8.1,64,0.00,,---,0.00,VWS V14.00,2013-07-08 14:47:00,
2013-07-08 09:48:00,82.4,69.0,28.94,West,264,5.4,5.8,64,0.00,,---,0.00,VWS V14.00,2013-07-08 14:48:00,
2013-07-08 09:49:00,82.8,69.3,28.94,SSW,208,2.2,5.4,64,0.00,,---,0.00,VWS V14.00,2013-07-08 14:49:00,
2013-07-08 09:50:00,83.1,69.7,28.94,SSW,208,0.0,0.0,64,0.00,,---,0.00,VWS V14.00,2013-07-08 14:50:00,
2013-07-08 09:51:00,83.5,70.0,28.94,WNW,288,0.0,0.0,64,0.00,,---,0.00,VWS V14.00,2013-07-08 14:51:00,
2013-07-08 09:52:00,84.0,70.5,28.94,WSW,238,0.0,0.0,64,0.00,,---,0.00,VWS V14.00,2013-07-08 14:52:00,
2013-07-08 09:53:00,84.2,70.7,28.94,SW,218,6.3,8.1,64,0.00,,---,0.00,VWS V14.00,2013-07-08 14:53:00,
2013-07-08 09:54:00,84.4,70.9,28.94,West,276,5.8,8.1,64,0.00,,---,0.00,VWS V14.00,2013-07-08 14:54:00,
2013-07-08 09:55:00,84.2,70.7,28.94,West,269,5.8,5.8,64,0.00,,---,0.00,VWS V14.00,2013-07-08 14:55:00,
2013-07-08 09:56:00,84.2,70.7,28.94,WNW,291,3.1,6.3,64,0.00,,---,0.00,VWS V14.00,2013-07-08 14:56:00,
2013-07-08 09:58:00,84.0,70.5,28.94,West,272,6.3,6.3,64,0.00,,---,0.00,VWS V14.00,2013-07-08 14:58:00,
2013-07-08 09:59:00,84.2,70.7,28.94,WSW,247,3.1,3.1,64,0.00,,---,0.00,VWS V14.00,2013-07-08 14:59:00,
2013-07-08 10:00:00,84.2,70.7,28.94,SSW,210,5.8,6.7,64,0.00,,---,0.00,VWS V14.00,2013-07-08 15:00:00,
2013-07-08 10:01:00,84.2,70.7,28.94,SW,232,0.0,6.7,64,0.00,,---,0.00,VWS V14.00,2013-07-08 15:01:00,
2013-07-08 10:03:00,84.6,71.1,28.94,WSW,248,2.7,5.4,64,0.00,,---,0.00,VWS V14.00,2013-07-08 15:03:00,
2013-07-08 10:04:00,84.9,71.4,28.94,West,280,5.8,5.8,64,0.00,,---,0.00,VWS V14.00,2013-07-08 15:04:00,
2013-07-08 10:05:00,84.9,71.4,28.94,SSW,197,2.7,3.1,64,0.00,,---,0.00,VWS V14.00,2013-07-08 15:05:00,
2013-07-08 10:06:00,85.1,71.6,28.94,SW,230,4.0,4.0,64,0.00,,---,0.00,VWS V14.00,2013-07-08 15:06:00,
2013-07-08 10:07:00,85.3,71.7,28.94,SW,234,3.1,4.0,64,0.00,,---,0.00,VWS V14.00,2013-07-08 15:07:00,
2013-07-08 10:08:00,85.5,71.9,28.94,WSW,242,0.0,3.1,64,0.00,,---,0.00,VWS V14.00,2013-07-08 15:08:00,
2013-07-08 10:09:00,85.6,72.1,28.94,WNW,285,0.0,0.0,64,0.00,,---,0.00,VWS V14.00,2013-07-08 15:09:00,
2013-07-08 10:10:00,86.0,72.4,28.94,West,261,3.6,4.9,64,0.00,,---,0.00,VWS V14.00,2013-07-08 15:10:00,
2013-07-08 10:11:00,86.0,72.4,28.94,West,277,2.7,6.3,64,0.00,,---,0.00,VWS V14.00,2013-07-08 15:11:00,
2013-07-08 16:37:00,86.4,72.8,28.88,West,275,7.6,7.6,64,0.00,,---,0.00,VWS V14.00,2013-07-08 21:37:00,
2013-07-08 16:38:00,86.2,72.6,28.88,West,262,5.4,7.6,64,0.00,,---,0.00,VWS V14.00,2013-07-08 21:38:00,
2013-07-08 16:39:00,85.8,72.2,28.88,WNW,293,6.7,6.7,64,0.00,,---,0.00,VWS V14.00,2013-07-08 21:39:00,
2013-07-08 16:40:00,85.6,72.1,28.88,SSW,197,3.6,6.7,64,0.00,,---,0.00,VWS V14.00,2013-07-08 21:40:00,
2013-07-08 16:42:00,85.5,71.9,28.88,WSW,249,3.6,5.4,64,0.00,,---,0.00,VWS V14.00,2013-07-08 21:42:00,
2013-07-08 16:43:00,85.5,71.9,28.88,West,267,2.7,5.4,64,0.00,,---,0.00,VWS V14.00,2013-07-08 21:43:00,
2013-07-08 16:44:00,85.3,71.7,28.88,West,261,3.1,4.9,64,0.00,,---,0.00,VWS V14.00,2013-07-08 21:44:00,
2013-07-08 16:45:00,85.5,71.9,28.88,SSW,208,3.6,4.0,64,0.00,,---,0.00,VWS V14.00,2013-07-08 21:45:00,
2013-07-08 16:46:00,85.6,72.1,28.88,SSW,208,0.0,3.6,64,0.00,,---,0.00,VWS V14.00,2013-07-08 21:46:00,
2013-07-08 16:47:00,85.8,72.2,28.88,West,265,0.0,0.0,64,0.00,,---,0.00,VWS V14.00,2013-07-08 21:47:00,
2013-07-08 16:48:00,86.0,72.4,28.88,WSW,245,0.0,0.0,64,0.00,,---,0.00,VWS V14.00,2013-07-08 21:48:00,
2013-07-08 16:49:00,86.2,72.6,28.88,SSW,204,0.0,0.0,64,0.00,,---,0.00,VWS V14.00,2013-07-08 21:49:00,
2013-07-08 16:50:00,86.5,72.9,28.88,SSW,200,2.7,2.7,64,0.00,,---,0.00,VWS V14.00,2013-07-08 21:50:00,
2013-07-08 16:51:00,86.5,72.9,28.85,West,260,3.1,6.3,64,0.00,,---,0.00,VWS V14.00,2013-07-08 21:51:00,
2013-07-08 16:53:00,86.4,72.8,28.85,SSW,212,4.0,5.4,64,0.00,,---,0.00,VWS V14.00,2013-07-08 21:53:00,
2013-07-08 16:54:00,86.2,72.6,28.85,SW,224,3.1,3.1,64,0.00,,---,0.00,VWS V14.00,2013-07-08 21:54:00,
2013-07-08 16:55:00,86.2,72.6,28.85,WSW,254,3.1,3.6,64,0.00,,---,0.00,VWS V14.00,2013-07-08 21:55:00,
2013-07-08 16:56:00,86.0,72.4,28.85,WSW,250,3.1,3.1,64,0.00,,---,0.00,VWS V14.00,2013-07-08 21:56:00,
2013-07-08 16:58:00,85.6,72.1,28.85,WSW,254,3.1,5.8,64,0.00,,---,0.00,VWS V14.00,2013-07-08 21:58:00,
2013-07-08 17:00:00,85.6,72.1,28.85,West,266,3.1,4.0,64,0.00,,---,0.00,VWS V14.00,2013-07-08 22:00:00,
2013-07-08 17:01:00,85.6,72.1,28.85,WSW,256,4.0,4.0,64,0.00,,---,0.00,VWS V14.00,2013-07-08 22:01:00,
2013-07-08 17:04:00,86.0,72.4,28.85,SW,214,4.9,4.9,64,0.00,,---,0.00,VWS V14.00,2013-07-08 22:04:00,
2013-07-08 17:05:00,86.0,72.4,28.85,SW,235,0.0,2.2,64,0.00,,---,0.00,VWS V14.00,2013-07-08 22:05:00,
2013-07-08 17:06:00,86.0,72.4,28.85,SW,235,0.0,2.2,64,0.00,,---,0.00,VWS V14.00,2013-07-08 22:06:00,
2013-07-08 17:09:00,86.5,72.9,28.85,South,184,0.0,0.0,64,0.00,,---,0.00,VWS V14.00,2013-07-08 22:09:00,
2013-07-08 17:11:00,86.5,72.9,28.85,WNW,284,4.0,4.0,64,0.00,,---,0.00,VWS V14.00,2013-07-08 22:11:00,
2013-07-08 17:12:00,86.5,72.9,28.85,WNW,299,5.4,5.4,64,0.00,,---,0.00,VWS V14.00,2013-07-08 22:12:00,
2013-07-08 17:15:00,86.0,72.4,28.85,SSW,202,3.1,5.4,64,0.00,,---,0.00,VWS V14.00,2013-07-08 22:15:00,
2013-07-08 17:17:00,86.0,72.4,28.85,WSW,251,0.0,0.0,64,0.00,,---,0.00,VWS V14.00,2013-07-08 22:17:00,
2013-07-08 17:20:00,86.4,72.8,28.85,WSW,251,0.0,0.0,64,0.00,,---,0.00,VWS V14.00,2013-07-08 22:20:00,
2013-07-08 17:22:00,86.4,72.8,28.85,SSW,204,4.0,4.0,64,0.00,,---,0.00,VWS V14.00,2013-07-08 22:22:00,
2013-07-08 17:23:00,86.4,72.8,28.85,SW,235,2.7,4.0,64,0.00,,---,0.00,VWS V14.00,2013-07-08 22:23:00,
2013-07-08 17:26:00,86.4,72.8,28.85,West,261,3.6,3.6,64,0.00,,---,0.00,VWS V14.00,2013-07-08 22:26:00,
2013-07-08 17:27:00,86.4,72.8,28.85,West,269,6.3,7.6,64,0.00,,---,0.00,VWS V14.00,2013-07-08 22:27:00,
2013-07-08 17:28:00,86.4,72.8,28.85,WNW,285,5.4,7.6,64,0.00,,---,0.00,VWS V14.00,2013-07-08 22:28:00,
2013-07-08 17:31:00,86.0,72.4,28.85,SSW,204,3.6,3.6,64,0.00,,---,0.00,VWS V14.00,2013-07-08 22:31:00,
2013-07-08 17:33:00,86.0,72.4,28.85,SW,214,3.1,5.8,64,0.00,,---,0.00,VWS V14.00,2013-07-08 22:33:00,
2013-07-08 17:36:00,85.6,72.1,28.85,WSW,238,5.4,5.4,64,0.00,,---,0.00,VWS V14.00,2013-07-08 22:36:00,
2013-07-08 17:38:00,85.6,72.1,28.85,SSW,202,3.6,3.6,64,0.00,,---,0.00,VWS V14.00,2013-07-08 22:38:00,
2013-07-08 17:39:00,85.6,72.1,28.85,SW,233,2.7,2.7,64,0.00,,---,0.00,VWS V14.00,2013-07-08 22:39:00,
2013-07-08 17:41:00,85.6,72.1,28.85,West,278,2.2,2.2,64,0.00,,---,0.00,VWS V14.00,2013-07-08 22:41:00,
2013-07-08 17:43:00,85.6,72.1,28.85,NW,315,4.0,8.3,64,0.00,,---,0.00,VWS V14.00,2013-07-08 22:43:00,
2013-07-08 17:44:00,85.6,72.1,28.85,West,272,3.1,6.3,64,0.00,,---,0.00,VWS V14.00,2013-07-08 22:44:00,
2013-07-08 17:46:00,85.5,71.9,28.85,WSW,252,2.7,2.7,64,0.00,,---,0.00,VWS V14.00,2013-07-08 22:46:00,
2013-07-08 17:49:00,85.6,72.1,28.85,West,265,3.6,6.3,64,0.00,,---,0.00,VWS V14.00,2013-07-08 22:49:00,
2013-07-08 17:51:00,85.6,72.1,28.85,WNW,286,4.0,5.8,64,0.00,,---,0.00,VWS V14.00,2013-07-08 22:51:00,
2013-07-08 17:52:00,85.8,72.2,28.85,West,277,3.1,5.8,64,0.00,,---,0.00,VWS V14.00,2013-07-08 22:52:00,
2013-07-08 17:54:00,85.8,72.2,28.85,SW,216,4.0,4.0,64,0.00,,---,0.00,VWS V14.00,2013-07-08 22:54:00,
2013-07-08 17:57:00,85.6,72.1,28.85,WSW,258,5.8,5.8,64,0.00,,---,0.00,VWS V14.00,2013-07-08 22:57:00,
2013-07-08 17:58:00,85.5,71.9,28.85,West,265,5.4,8.3,64,0.00,,---,0.00,VWS V14.00,2013-07-08 22:58:00,
2013-07-08 18:00:00,85.6,72.1,28.85,WNW,300,4.9,4.9,64,0.00,,---,0.00,VWS V14.00,2013-07-08 23:00:00,
2013-07-08 18:02:00,85.6,72.1,28.85,SSW,212,4.9,4.9,64,0.00,,---,0.00,VWS V14.00,2013-07-08 23:02:00,
2013-07-08 18:04:00,85.8,72.2,28.85,West,270,3.1,4.0,64,0.00,,---,0.00,VWS V14.00,2013-07-08 23:04:00,
2013-07-08 18:05:00,85.8,72.2,28.85,WSW,256,5.8,6.3,64,0.00,,---,0.00,VWS V14.00,2013-07-08 23:05:00,
2013-07-08 18:07:00,85.6,72.1,28.85,SW,227,0.0,2.7,64,0.00,,---,0.00,VWS V14.00,2013-07-08 23:07:00,
2013-07-08 18:09:00,85.6,72.1,28.85,WNW,283,0.0,0.0,64,0.00,,---,0.00,VWS V14.00,2013-07-08 23:09:00,
2013-07-08 18:10:00,85.6,72.1,28.85,WNW,283,0.0,0.0,64,0.00,,---,0.00,VWS V14.00,2013-07-08 23:10:00,
2013-07-08 18:13:00,85.6,72.1,28.85,WSW,257,2.2,5.4,64,0.00,,---,0.00,VWS V14.00,2013-07-08 23:13:00,
2013-07-08 18:14:00,85.6,72.1,28.85,West,273,2.7,2.7,64,0.00,,---,0.00,VWS V14.00,2013-07-08 23:14:00,
2013-07-08 18:16:00,85.6,72.1,28.85,West,260,3.1,3.1,64,0.00,,---,0.00,VWS V14.00,2013-07-08 23:16:00,
2013-07-08 18:18:00,85.6,72.1,28.85,SSW,204,4.9,5.4,64,0.00,,---,0.00,VWS V14.00,2013-07-08 23:18:00,
2013-07-08 18:20:00,85.6,72.1,28.85,WSW,252,3.1,4.0,64,0.00,,---,0.00,VWS V14.00,2013-07-08 23:20:00,
2013-07-08 18:21:00,85.6,72.1,28.85,West,263,2.7,2.7,64,0.00,,---,0.00,VWS V14.00,2013-07-08 23:21:00,
2013-07-08 18:23:00,85.6,72.1,28.85,West,260,2.7,2.7,64,0.00,,---,0.00,VWS V14.00,2013-07-08 23:23:00,
2013-07-08 18:26:00,85.6,72.1,28.85,WNW,294,6.3,6.3,64,0.00,,---,0.00,VWS V14.00,2013-07-08 23:26:00,
2013-07-08 18:30:00,85.5,71.9,28.85,West,265,2.2,2.7,64,0.00,,---,0.00,VWS V14.00,2013-07-08 23:30:00,
2013-07-08 18:31:00,85.5,71.9,28.85,SSW,195,3.1,3.1,64,0.00,,---,0.00,VWS V14.00,2013-07-08 23:31:00,
2013-07-08 18:32:00,85.5,71.9,28.85,SW,232,3.6,3.6,64,0.00,,---,0.00,VWS V14.00,2013-07-08 23:32:00,
2013-07-08 18:35:00,85.3,71.7,28.85,SSW,213,0.0,0.0,64,0.00,,---,0.00,VWS V14.00,2013-07-08 23:35:00,
2013-07-08 18:36:00,85.3,71.7,28.85,SSW,195,2.7,3.6,64,0.00,,---,0.00,VWS V14.00,2013-07-08 23:36:00,
2013-07-08 18:37:00,85.3,71.7,28.85,WSW,255,0.0,2.7,64,0.00,,---,0.00,VWS V14.00,2013-07-08 23:37:00,
2013-07-08 18:40:00,85.1,71.6,28.85,SSW,196,0.0,0.0,64,0.00,,---,0.00,VWS V14.00,2013-07-08 23:40:00,
2013-07-08 18:42:00,85.1,71.6,28.85,West,276,0.0,0.0,64,0.00,,---,0.00,VWS V14.00,2013-07-08 23:42:00,
2013-07-08 18:45:00,84.7,71.2,28.85,WSW,242,0.0,0.0,64,0.00,,---,0.00,VWS V14.00,2013-07-08 23:45:00,
2013-07-08 18:47:00,84.6,71.1,28.85,SSW,207,4.9,4.9,64,0.00,,---,0.00,VWS V14.00,2013-07-08 23:47:00,
2013-07-08 18:48:00,84.6,71.1,28.85,SSW,197,3.1,3.1,64,0.00,,---,0.00,VWS V14.00,2013-07-08 23:48:00,
2013-07-08 18:51:00,84.4,70.9,28.88,SW,234,0.0,2.2,64,0.00,,---,0.00,VWS V14.00,2013-07-08 23:51:00,
2013-07-08 18:53:00,84.4,70.9,28.88,WSW,239,3.1,3.1,64,0.00,,---,0.00,VWS V14.00,2013-07-08 23:53:00,
2013-07-08 18:54:00,84.4,70.9,28.88,SSW,195,4.0,4.0,64,0.00,,---,0.00,VWS V14.00,2013-07-08 23:54:00,
2013-07-08 18:56:00,84.2,70.7,28.88,SSW,211,3.1,4.9,64,0.00,,---,0.00,VWS V14.00,2013-07-08 23:56:00,
2013-07-08 18:58:00,84.0,70.5,28.88,West,267,4.0,6.3,64,0.00,,---,0.00,VWS V14.00,2013-07-08 23:58:00,
2013-07-08 18:59:00,84.0,70.5,28.88,West,265,5.4,5.4,64,0.00,,---,0.00,VWS V14.00,2013-07-08 23:59:00,
2013-07-08 19:02:00,83.8,70.4,28.88,WSW,258,3.1,3.1,64,0.00,,---,0.00,VWS V14.00,2013-07-09 00:02:00,
2013-07-08 19:03:00,83.7,70.2,28.88,SSW,213,3.6,3.6,64,0.00,,---,0.00,VWS V14.00,2013-07-09 00:03:00,
2013-07-08 19:04:00,83.7,70.2,28.88,WSW,249,3.1,4.0,64,0.00,,---,0.00,VWS V14.00,2013-07-09 00:04:00,
2013-07-08 19:07:00,83.3,69.9,28.88,WSW,241,5.4,6.3,64,0.00,,---,0.00,VWS V14.00,2013-07-09 00:07:00,
2013-07-08 19:08:00,83.3,69.9,28.88,West,267,2.2,2.2,64,0.00,,---,0.00,VWS V14.00,2013-07-09 00:08:00,
2013-07-08 19:09:00,83.1,69.7,28.88,West,267,2.2,2.2,64,0.00,,---,0.00,VWS V14.00,2013-07-09 00:09:00,
2013-07-08 19:13:00,82.9,69.5,28.88,West,275,0.0,0.0,64,0.00,,---,0.00,VWS V14.00,2013-07-09 00:13:00,
2013-07-08 19:14:00,82.9,69.5,28.88,WSW,258,0.0,0.0,64,0.00,,---,0.00,VWS V14.00,2013-07-09 00:14:00,
2013-07-08 19:15:00,82.9,69.5,28.88,West,280,0.0,0.0,64,0.00,,---,0.00,VWS V14.00,2013-07-09 00:15:00,
2013-07-08 19:18:00,82.8,69.3,28.88,West,274,2.7,2.7,64,0.00,,---,0.00,VWS V14.00,2013-07-09 00:18:00,
2013-07-08 19:20:00,82.6,69.2,28.88,NW,312,5.4,5.4,64,0.00,,---,0.00,VWS V14.00,2013-07-09 00:20:00,
2013-07-08 19:24:00,82.4,69.0,28.88,SW,225,4.0,7.6,64,0.00,,---,0.00,VWS V14.00,2013-07-09 00:24:00,
2013-07-08 19:25:00,82.4,69.0,28.88,West,263,7.2,7.2,64,0.00,,---,0.00,VWS V14.00,2013-07-09 00:25:00,
2013-07-08 19:30:00,82.0,70.4,28.88,West,261,4.9,4.9,68,0.00,,---,0.00,VWS V14.00,2013-07-09 00:30:00,
2013-07-08 19:31:00,81.9,70.3,28.88,West,259,6.3,6.3,68,0.00,,---,0.00,VWS V14.00,2013-07-09 00:31:00,
2013-07-08 19:35:00,81.7,70.1,28.88,West,270,5.4,5.8,68,0.00,,---,0.00,VWS V14.00,2013-07-09 00:35:00,
2013-07-08 19:36:00,81.5,69.9,28.88,West,271,2.7,2.7,68,0.00,,---,0.00,VWS V14.00,2013-07-09 00:36:00,
2013-07-08 19:37:00,81.5,69.9,28.88,West,277,4.0,4.9,68,0.00,,---,0.00,VWS V14.00,2013-07-09 00:37:00,
2013-07-08 19:40:00,81.3,69.8,28.88,WSW,248,2.7,2.7,68,0.00,,---,0.00,VWS V14.00,2013-07-09 00:40:00,
2013-07-08 19:42:00,81.3,69.8,28.88,WSW,248,0.0,2.2,68,0.00,,---,0.00,VWS V14.00,2013-07-09 00:42:00,
2013-07-08 19:43:00,81.1,69.6,28.88,WSW,248,0.0,0.0,68,0.00,,---,0.00,VWS V14.00,2013-07-09 00:43:00,
2013-07-08 19:45:00,81.1,69.6,28.88,West,265,2.7,3.6,68,0.00,,---,0.00,VWS V14.00,2013-07-09 00:45:00,
2013-07-08 19:47:00,81.0,69.4,28.88,WSW,237,3.6,6.3,68,0.00,,---,0.00,VWS V14.00,2013-07-09 00:47:00,
2013-07-08 19:48:00,81.0,69.4,28.88,SSW,201,2.7,3.1,68,0.00,,---,0.00,VWS V14.00,2013-07-09 00:48:00,
2013-07-08 19:50:00,81.0,69.4,28.88,WSW,247,2.2,3.1,68,0.00,,---,0.00,VWS V14.00,2013-07-09 00:50:00,
2013-07-08 19:52:00,80.8,69.2,28.88,SW,218,0.0,3.1,68,0.00,,---,0.00,VWS V14.00,2013-07-09 00:52:00,
2013-07-08 19:54:00,80.8,69.2,28.88,WNW,282,0.0,0.0,68,0.00,,---,0.00,VWS V14.00,2013-07-09 00:54:00,
2013-07-08 19:56:00,80.6,69.1,28.88,West,278,0.0,0.0,68,0.00,,---,0.00,VWS V14.00,2013-07-09 00:56:00,
2013-07-08 19:57:00,80.6,69.1,28.88,West,278,0.0,0.0,68,0.00,,---,0.00,VWS V14.00,2013-07-09 00:57:00,
2013-07-08 19:59:00,80.4,68.9,28.88,West,270,0.0,5.4,68,0.00,,---,0.00,VWS V14.00,2013-07-09 00:59:00,
2013-07-08 20:01:00,80.4,68.9,28.88,SW,226,3.6,6.3,68,0.00,,---,0.00,VWS V14.00,2013-07-09 01:01:00,
2013-07-08 20:02:00,80.4,68.9,28.88,West,265,0.0,2.7,68,0.00,,---,0.00,VWS V14.00,2013-07-09 01:02:00,
2013-07-08 20:04:00,80.4,68.9,28.88,West,261,0.0,0.0,68,0.00,,---,0.00,VWS V14.00,2013-07-09 01:04:00,
2013-07-08 20:07:00,80.2,68.7,28.88,SW,233,3.1,4.0,68,0.00,,---,0.00,VWS V14.00,2013-07-09 01:07:00,
2013-07-08 20:08:00,80.2,68.7,28.88,SW,227,3.6,4.9,68,0.00,,---,0.00,VWS V14.00,2013-07-09 01:08:00,
2013-07-08 20:09:00,80.2,68.7,28.88,SW,222,0.0,2.2,68,0.00,,---,0.00,VWS V14.00,2013-07-09 01:09:00,
2013-07-08 20:12:00,80.2,68.7,28.88,SSW,207,0.0,3.6,68,0.00,,---,0.00,VWS V14.00,2013-07-09 01:12:00,
2013-07-08 20:13:00,80.1,68.6,28.88,WSW,255,2.7,4.9,68,0.00,,---,0.00,VWS V14.00,2013-07-09 01:13:00,
2013-07-08 20:14:00,80.1,68.6,28.88,SW,220,0.0,2.2,68,0.00,,---,0.00,VWS V14.00,2013-07-09 01:14:00,
2013-07-08 20:17:00,79.9,68.4,28.88,WSW,255,0.0,0.0,68,0.00,,---,0.00,VWS V14.00,2013-07-09 01:17:00,
2013-07-08 20:18:00,79.9,68.4,28.88,SSW,204,2.2,3.6,68,0.00,,---,0.00,VWS V14.00,2013-07-09 01:18:00,
2013-07-08 20:20:00,79.9,68.4,28.88,WSW,240,0.0,2.7,68,0.00,,---,0.00,VWS V14.00,2013-07-09 01:20:00,
2013-07-08 20:22:00,79.7,68.2,28.88,WSW,240,0.0,0.0,68,0.00,,---,0.00,VWS V14.00,2013-07-09 01:22:00,
2013-07-08 20:25:00,79.7,68.2,28.88,West,263,2.7,2.7,68,0.00,,---,0.00,VWS V14.00,2013-07-09 01:25:00,
2013-07-08 20:26:00,79.7,68.2,28.88,SW,234,2.7,2.7,68,0.00,,---,0.00,VWS V14.00,2013-07-09 01:26:00,
2013-07-08 20:27:00,79.7,68.2,28.88,West,280,0.0,0.0,68,0.00,,---,0.00,VWS V14.00,2013-07-09 01:27:00,
2013-07-08 20:30:00,79.7,68.2,28.88,WNW,291,0.0,0.0,68,0.00,,---,0.00,VWS V14.00,2013-07-09 01:30:00,
2013-07-08 20:31:00,79.7,68.2,28.88,WNW,291,0.0,0.0,68,0.00,,---,0.00,VWS V14.00,2013-07-09 01:31:00,
2013-07-08 20:32:00,79.5,68.0,28.88,WNW,291,0.0,0.0,68,0.00,,---,0.00,VWS V14.00,2013-07-09 01:32:00,
2013-07-08 20:36:00,79.5,68.0,28.88,West,265,0.0,0.0,68,0.00,,---,0.00,VWS V14.00,2013-07-09 01:36:00,
2013-07-08 20:38:00,79.5,68.0,28.88,West,272,0.0,0.0,68,0.00,,---,0.00,VWS V14.00,2013-07-09 01:38:00,
2013-07-08 20:41:00,79.3,67.9,28.88,WSW,249,0.0,0.0,68,0.00,,---,0.00,VWS V14.00,2013-07-09 01:41:00,
2013-07-08 20:42:00,79.3,67.9,28.88,WSW,242,0.0,0.0,68,0.00,,---,0.00,VWS V14.00,2013-07-09 01:42:00,
2013-07-08 20:44:00,79.3,67.9,28.88,WSW,250,0.0,2.7,68,0.00,,---,0.00,VWS V14.00,2013-07-09 01:44:00,
2013-07-08 20:46:00,79.3,67.9,28.88,WSW,244,0.0,0.0,68,0.00,,---,0.00,VWS V14.00,2013-07-09 01:46:00,
2013-07-08 20:48:00,79.3,67.9,28.88,WNW,283,0.0,0.0,68,0.00,,---,0.00,VWS V14.00,2013-07-09 01:48:00,
2013-07-08 20:49:00,79.3,67.9,28.88,West,281,0.0,0.0,68,0.00,,---,0.00,VWS V14.00,2013-07-09 01:49:00,
2013-07-08 20:52:00,79.3,67.9,28.88,West,281,0.0,0.0,68,0.00,,---,0.00,VWS V14.00,2013-07-09 01:52:00,
2013-07-08 20:53:00,79.3,67.9,28.88,West,281,0.0,0.0,68,0.00,,---,0.00,VWS V14.00,2013-07-09 01:53:00,
2013-07-08 20:54:00,79.3,67.9,28.88,West,281,0.0,0.0,68,0.00,,---,0.00,VWS V14.00,2013-07-09 01:54:00,
2013-07-08 20:57:00,79.2,67.7,28.88,SSW,205,3.6,3.6,68,0.00,,---,0.00,VWS V14.00,2013-07-09 01:57:00,
2013-07-08 20:58:00,79.2,67.7,28.88,WSW,238,2.2,3.6,68,0.00,,---,0.00,VWS V14.00,2013-07-09 01:58:00,
2013-07-08 20:59:00,79.2,67.7,28.88,WSW,238,2.2,3.6,68,0.00,,---,0.00,VWS V14.00,2013-07-09 01:59:00,
2013-07-08 21:02:00,79.2,67.7,28.88,WSW,238,0.0,0.0,68,0.00,,---,0.00,VWS V14.00,2013-07-09 02:02:00,
2013-07-08 21:03:00,79.2,67.7,28.88,WSW,238,0.0,0.0,68,0.00,,---,0.00,VWS V14.00,2013-07-09 02:03:00,
2013-07-08 21:04:00,79.2,67.7,28.88,WSW,238,0.0,0.0,68,0.00,,---,0.00,VWS V14.00,2013-07-09 02:04:00,
2013-07-08 21:07:00,79.0,67.5,28.88,SW,216,0.0,0.0,68,0.00,,---,0.00,VWS V14.00,2013-07-09 02:07:00,
2013-07-08 21:09:00,79.0,67.5,28.88,SW,216,0.0,0.0,68,0.00,,---,0.00,VWS V14.00,2013-07-09 02:09:00,
2013-07-08 21:12:00,79.0,67.5,28.88,SW,218,0.0,0.0,68,0.00,,---,0.00,VWS V14.00,2013-07-09 02:12:00,
2013-07-08 21:14:00,78.8,67.4,28.88,SSW,210,3.1,3.6,68,0.00,,---,0.00,VWS V14.00,2013-07-09 02:14:00,
2013-07-08 21:15:00,78.8,67.4,28.88,WSW,252,2.7,3.6,68,0.00,,---,0.00,VWS V14.00,2013-07-09 02:15:00,
2013-07-08 21:18:00,78.8,67.4,28.88,WSW,249,0.0,0.0,68,0.00,,---,0.00,VWS V14.00,2013-07-09 02:18:00,
2013-07-08 21:19:00,78.8,67.4,28.88,West,274,0.0,0.0,68,0.00,,---,0.00,VWS V14.00,2013-07-09 02:19:00,
2013-07-08 21:20:00,78.8,67.4,28.88,West,274,0.0,0.0,68,0.00,,---,0.00,VWS V14.00,2013-07-09 02:20:00,
2013-07-08 21:23:00,78.8,67.4,28.88,WNW,293,0.0,0.0,68,0.00,,---,0.00,VWS V14.00,2013-07-09 02:23:00,
2013-07-08 21:25:00,78.8,67.4,28.88,SSW,193,3.6,3.6,68,0.00,,---,0.00,VWS V14.00,2013-07-09 02:25:00,
2013-07-08 21:29:00,78.8,67.4,28.88,SW,230,0.0,0.0,68,0.00,,---,0.00,VWS V14.00,2013-07-09 02:29:00,
2013-07-08 21:30:00,78.6,68.8,28.88,SW,230,0.0,0.0,72,0.00,,---,0.00,VWS V14.00,2013-07-09 02:30:00,
2013-07-08 21:35:00,78.6,68.8,28.88,SSW,199,0.0,0.0,72,0.00,,---,0.00,VWS V14.00,2013-07-09 02:35:00,
2013-07-08 21:36:00,78.6,68.8,28.88,SSW,206,0.0,0.0,72,0.00,,---,0.00,VWS V14.00,2013-07-09 02:36:00,
2013-07-08 21:40:00,78.6,71.9,28.88,SSW,205,3.1,5.4,80,0.00,,---,0.00,VWS V14.00,2013-07-09 02:40:00,
2013-07-08 21:41:00,78.4,71.8,28.88,WSW,255,0.0,0.0,80,0.00,,---,0.00,VWS V14.00,2013-07-09 02:41:00,
2013-07-08 21:45:00,78.4,71.8,28.88,WSW,253,2.7,3.1,80,0.00,,---,0.00,VWS V14.00,2013-07-09 02:45:00,
2013-07-08 21:46:00,78.4,71.8,28.88,SSW,200,4.9,4.9,80,0.00,,---,0.00,VWS V14.00,2013-07-09 02:46:00,
2013-07-08 21:47:00,78.4,71.8,28.88,SSW,200,0.0,4.9,80,0.00,,---,0.00,VWS V14.00,2013-07-09 02:47:00,
2013-07-08 21:51:00,78.4,71.8,28.88,SSW,193,0.0,0.0,80,0.00,,---,0.00,VWS V14.00,2013-07-09 02:51:00,
2013-07-08 21:52:00,78.3,71.6,28.88,SSW,193,0.0,0.0,80,0.00,,---,0.00,VWS V14.00,2013-07-09 02:52:00,
2013-07-08 21:56:00,78.3,71.6,28.88,SSW,206,0.0,0.0,80,0.00,,---,0.00,VWS V14.00,2013-07-09 02:56:00,
2013-07-08 21:57:00,78.3,71.6,28.88,SSW,206,0.0,0.0,80,0.00,,---,0.00,VWS V14.00,2013-07-09 02:57:00,
2013-07-08 22:01:00,78.1,71.4,28.88,WSW,244,0.0,0.0,80,0.00,,---,0.00,VWS V14.00,2013-07-09 03:01:00,
2013-07-08 22:02:00,78.1,71.4,28.88,WSW,244,0.0,0.0,80,0.00,,---,0.00,VWS V14.00,2013-07-09 03:02:00,
2013-07-08 22:03:00,78.1,71.4,28.88,WSW,244,0.0,0.0,80,0.00,,---,0.00,VWS V14.00,2013-07-09 03:03:00,
2013-07-08 22:07:00,78.1,71.4,28.88,West,265,0.0,0.0,80,0.00,,---,0.00,VWS V14.00,2013-07-09 03:07:00,
2013-07-08 22:09:00,78.1,71.4,28.88,West,265,0.0,0.0,80,0.00,,---,0.00,VWS V14.00,2013-07-09 03:09:00,
2013-07-08 22:12:00,78.1,71.4,28.88,WSW,247,0.0,2.7,80,0.00,,---,0.00,VWS V14.00,2013-07-09 03:12:00,
2013-07-08 22:14:00,78.1,71.4,28.88,WSW,247,0.0,0.0,80,0.00,,---,0.00,VWS V14.00,2013-07-09 03:14:00,
2013-07-08 22:17:00,78.1,71.4,28.88,SSW,206,2.2,2.2,80,0.00,,---,0.00,VWS V14.00,2013-07-09 03:17:00,
2013-07-08 22:19:00,78.1,71.4,28.88,WSW,241,2.7,4.0,80,0.00,,---,0.00,VWS V14.00,2013-07-09 03:19:00,
2013-07-08 22:23:00,78.1,71.4,28.88,West,266,0.0,0.0,80,0.00,,---,0.00,VWS V14.00,2013-07-09 03:23:00,
2013-07-08 22:24:00,78.1,71.4,28.88,SSW,197,0.0,0.0,80,0.00,,---,0.00,VWS V14.00,2013-07-09 03:24:00,
2013-07-08 22:28:00,78.1,71.4,28.88,WNW,290,2.7,2.7,80,0.00,,---,0.00,VWS V14.00,2013-07-09 03:28:00,
2013-07-08 22:29:00,78.1,71.4,28.88,SSW,203,2.7,3.6,80,0.00,,---,0.00,VWS V14.00,2013-07-09 03:29:00,
2013-07-08 22:33:00,78.1,71.4,28.88,WSW,248,3.1,3.6,80,0.00,,---,0.00,VWS V14.00,2013-07-09 03:33:00,
2013-07-08 22:36:00,78.1,71.4,28.88,West,260,2.2,3.1,80,0.00,,---,0.00,VWS V14.00,2013-07-09 03:36:00,
2013-07-08 22:38:00,78.1,71.4,28.88,West,264,0.0,2.2,80,0.00,,---,0.00,VWS V14.00,2013-07-09 03:38:00,
2013-07-08 22:39:00,78.1,71.4,28.88,West,264,0.0,2.2,80,0.00,,---,0.00,VWS V14.00,2013-07-09 03:39:00,
2013-07-08 22:43:00,78.1,71.4,28.88,West,271,2.7,3.6,80,0.00,,---,0.00,VWS V14.00,2013-07-09 03:43:00,
2013-07-08 22:44:00,78.1,71.4,28.88,West,276,4.0,4.0,80,0.00,,---,0.00,VWS V14.00,2013-07-09 03:44:00,
2013-07-08 22:45:00,78.1,71.4,28.88,West,270,0.0,4.9,80,0.00,,---,0.00,VWS V14.00,2013-07-09 03:45:00,
2013-07-08 22:48:00,78.1,71.4,28.88,WSW,258,0.0,3.6,80,0.00,,---,0.00,VWS V14.00,2013-07-09 03:48:00,
2013-07-08 22:49:00,78.1,71.4,28.88,West,270,2.2,2.7,80,0.00,,---,0.00,VWS V14.00,2013-07-09 03:49:00,
2013-07-08 22:50:00,77.9,71.2,28.88,WSW,247,3.1,4.0,80,0.00,,---,0.00,VWS V14.00,2013-07-09 03:50:00,
2013-07-08 22:53:00,77.9,71.2,28.88,West,277,3.6,3.6,80,0.00,,---,0.00,VWS V14.00,2013-07-09 03:53:00,
2013-07-08 22:54:00,77.9,71.2,28.88,West,261,3.6,4.0,80,0.00,,---,0.00,VWS V14.00,2013-07-09 03:54:00,
2013-07-08 22:56:00,77.9,71.2,28.88,West,262,4.0,4.0,80,0.00,,---,0.00,VWS V14.00,2013-07-09 03:56:00,
2013-07-08 22:59:00,77.9,71.2,28.88,SSW,212,2.2,4.0,80,0.00,,---,0.00,VWS V14.00,2013-07-09 03:59:00,
2013-07-08 23:00:00,77.9,71.2,28.88,WSW,248,2.2,3.1,80,0.00,,---,0.00,VWS V14.00,2013-07-09 04:00:00,
2013-07-08 23:01:00,77.9,71.2,28.88,SSW,209,3.6,3.6,80,0.00,,---,0.00,VWS V14.00,2013-07-09 04:01:00,
2013-07-08 23:02:00,77.9,71.2,28.88,West,279,2.2,4.0,80,0.00,,---,0.00,VWS V14.00,2013-07-09 04:02:00,
2013-07-08 23:03:00,77.7,71.1,28.88,WSW,257,2.2,2.2,80,0.00,,---,0.00,VWS V14.00,2013-07-09 04:03:00,
2013-07-08 23:04:00,77.7,71.1,28.88,WSW,257,2.7,3.6,80,0.00,,---,0.00,VWS V14.00,2013-07-09 04:04:00,
2013-07-08 23:05:00,77.7,71.1,28.88,WSW,257,2.2,2.7,80,0.00,,---,0.00,VWS V14.00,2013-07-09 04:05:00,
2013-07-08 23:06:00,77.7,71.1,28.88,WSW,257,0.0,2.2,80,0.00,,---,0.00,VWS V14.00,2013-07-09 04:06:00,
2013-07-08 23:07:00,77.7,71.1,28.88,WSW,251,2.7,4.0,80,0.00,,---,0.00,VWS V14.00,2013-07-09 04:07:00,
2013-07-08 23:08:00,77.7,71.1,28.88,WSW,249,2.2,2.7,80,0.00,,---,0.00,VWS V14.00,2013-07-09 04:08:00,
2013-07-08 23:09:00,77.7,71.1,28.88,SSW,200,2.7,2.7,80,0.00,,---,0.00,VWS V14.00,2013-07-09 04:09:00,
2013-07-08 23:10:00,77.7,71.1,28.88,WSW,257,3.1,3.1,80,0.00,,---,0.00,VWS V14.00,2013-07-09 04:10:00,
2013-07-08 23:11:00,77.5,70.9,28.88,West,274,3.6,3.6,80,0.00,,---,0.00,VWS V14.00,2013-07-09 04:11:00,
2013-07-08 23:12:00,77.5,70.9,28.88,WSW,241,4.0,5.8,80,0.00,,---,0.00,VWS V14.00,2013-07-09 04:12:00,
2013-07-08 23:13:00,77.7,71.1,28.88,SW,224,3.1,4.0,80,0.00,,---,0.00,VWS V14.00,2013-07-09 04:13:00,
2013-07-08 23:14:00,77.7,71.1,28.88,WSW,243,0.0,4.9,80,0.00,,---,0.00,VWS V14.00,2013-07-09 04:14:00,
2013-07-08 23:15:00,77.7,71.1,28.88,WSW,244,0.0,4.9,80,0.00,,---,0.00,VWS V14.00,2013-07-09 04:15:00,
2013-07-08 23:16:00,77.7,71.1,28.88,WSW,246,2.2,2.7,80,0.00,,---,0.00,VWS V14.00,2013-07-09 04:16:00,
2013-07-08 23:17:00,77.7,71.1,28.88,WSW,246,2.7,2.7,80,0.00,,---,0.00,VWS V14.00,2013-07-09 04:17:00,
2013-07-08 23:18:00,77.7,71.1,28.88,SW,234,0.0,3.1,80,0.00,,---,0.00,VWS V14.00,2013-07-09 04:18:00,
2013-07-08 23:19:00,77.7,71.1,28.88,SW,223,0.0,0.0,80,0.00,,---,0.00,VWS V14.00,2013-07-09 04:19:00,
2013-07-08 23:20:00,77.5,70.9,28.88,SW,224,0.0,0.0,80,0.00,,---,0.00,VWS V14.00,2013-07-09 04:20:00,
2013-07-08 23:21:00,77.5,70.9,28.88,South,188,0.0,0.0,80,0.00,,---,0.00,VWS V14.00,2013-07-09 04:21:00,
2013-07-08 23:22:00,77.5,70.9,28.88,SSW,213,3.6,3.6,80,0.00,,---,0.00,VWS V14.00,2013-07-09 04:22:00,
2013-07-08 23:23:00,77.5,70.9,28.88,West,261,2.2,4.0,80,0.00,,---,0.00,VWS V14.00,2013-07-09 04:23:00,
2013-07-08 23:24:00,77.5,70.9,28.88,West,261,2.2,2.2,80,0.00,,---,0.00,VWS V14.00,2013-07-09 04:24:00,
2013-07-08 23:25:00,77.5,70.9,28.88,SSW,204,3.6,3.6,80,0.00,,---,0.00,VWS V14.00,2013-07-09 04:25:00,
2013-07-08 23:26:00,77.5,70.9,28.88,SSW,204,2.7,2.7,80,0.00,,---,0.00,VWS V14.00,2013-07-09 04:26:00,
2013-07-08 23:27:00,77.5,70.9,28.88,WNW,283,2.2,3.6,80,0.00,,---,0.00,VWS V14.00,2013-07-09 04:27:00,
2013-07-08 23:28:00,77.5,70.9,28.88,West,279,2.7,3.6,80,0.00,,---,0.00,VWS V14.00,2013-07-09 04:28:00,
2013-07-08 23:29:00,77.5,70.9,28.88,West,261,2.7,2.7,80,0.00,,---,0.00,VWS V14.00,2013-07-09 04:29:00,
2013-07-08 23:30:00,77.5,70.9,28.88,SW,218,2.2,6.3,80,0.00,,---,0.00,VWS V14.00,2013-07-09 04:30:00,
2013-07-08 23:31:00,77.5,70.9,28.88,West,265,2.7,2.7,80,0.00,,---,0.00,VWS V14.00,2013-07-09 04:31:00,
2013-07-08 23:32:00,77.4,70.7,28.88,WSW,253,0.0,0.0,80,0.00,,---,0.00,VWS V14.00,2013-07-09 04:32:00,
2013-07-08 23:33:00,77.4,70.7,28.88,SSW,206,3.6,5.8,80,0.00,,---,0.00,VWS V14.00,2013-07-09 04:33:00,
2013-07-08 23:34:00,77.4,70.7,28.88,SW,236,2.7,3.6,80,0.00,,---,0.00,VWS V14.00,2013-07-09 04:34:00,
2013-07-08 23:35:00,77.4,70.7,28.88,SSW,211,3.6,4.0,80,0.00,,---,0.00,VWS V14.00,2013-07-09 04:35:00,
2013-07-08 23:36:00,77.4,70.7,28.88,SSW,212,0.0,2.2,80,0.00,,---,0.00,VWS V14.00,2013-07-09 04:36:00,
2013-07-08 23:37:00,77.4,70.7,28.88,SSW,212,0.0,2.2,80,0.00,,---,0.00,VWS V14.00,2013-07-09 04:37:00,
2013-07-08 23:38:00,77.4,70.7,28.88,SW,220,2.7,2.7,80,0.00,,---,0.00,VWS V14.00,2013-07-09 04:38:00,
2013-07-08 23:39:00,77.4,70.7,28.88,WSW,238,2.7,4.0,80,0.00,,---,0.00,VWS V14.00,2013-07-09 04:39:00,
2013-07-08 23:40:00,77.4,70.7,28.88,WSW,238,2.2,2.7,80,0.00,,---,0.00,VWS V14.00,2013-07-09 04:40:00,
2013-07-08 23:41:00,77.4,70.7,28.88,SSW,206,2.7,2.7,80,0.00,,---,0.00,VWS V14.00,2013-07-09 04:41:00,
2013-07-08 23:42:00,77.4,70.7,28.88,WSW,240,3.6,3.6,80,0.00,,---,0.00,VWS V14.00,2013-07-09 04:42:00,
2013-07-08 23:43:00,77.4,70.7,28.88,WSW,240,2.2,3.6,80,0.00,,---,0.00,VWS V14.00,2013-07-09 04:43:00,
2013-07-08 23:44:00,77.4,70.7,28.88,WSW,251,2.2,3.1,80,0.00,,---,0.00,VWS V14.00,2013-07-09 04:44:00,
2013-07-08 23:45:00,77.4,70.7,28.88,WSW,252,0.0,2.2,80,0.00,,---,0.00,VWS V14.00,2013-07-09 04:45:00,
2013-07-08 23:46:00,77.4,70.7,28.88,West,259,2.2,5.4,80,0.00,,---,0.00,VWS V14.00,2013-07-09 04:46:00,
2013-07-08 23:47:00,77.4,70.7,28.88,SW,224,3.6,3.6,80,0.00,,---,0.00,VWS V14.00,2013-07-09 04:47:00,
2013-07-08 23:48:00,77.4,70.7,28.88,SW,224,0.0,2.7,80,0.00,,---,0.00,VWS V14.00,2013-07-09 04:48:00,
2013-07-08 23:49:00,77.4,70.7,28.88,WNW,287,0.0,0.0,80,0.00,,---,0.00,VWS V14.00,2013-07-09 04:49:00,
2013-07-08 23:50:00,77.2,70.5,28.88,WNW,287,0.0,0.0,80,0.00,,---,0.00,VWS V14.00,2013-07-09 04:50:00,
2013-07-08 23:51:00,77.2,70.5,28.88,WNW,293,0.0,0.0,80,0.00,,---,0.00,VWS V14.00,2013-07-09 04:51:00,
2013-07-08 23:52:00,77.2,70.5,28.88,WNW,293,0.0,0.0,80,0.00,,---,0.00,VWS V14.00,2013-07-09 04:52:00,
2013-07-08 23:53:00,77.2,70.5,28.88,WNW,293,0.0,0.0,80,0.00,,---,0.00,VWS V14.00,2013-07-09 04:53:00,
2013-07-08 23:54:00,77.2,70.5,28.88,West,263,0.0,0.0,80,0.00,,---,0.00,VWS V14.00,2013-07-09 04:54:00,
2013-07-08 23:55:00,77.2,70.5,28.88,West,263,0.0,0.0,80,0.00,,---,0.00,VWS V14.00,2013-07-09 04:55:00,
2013-07-08 23:56:00,77.2,70.5,28.88,WSW,237,0.0,0.0,80,0.00,,---,0.00,VWS V14.00,2013-07-09 04:56:00,
2013-07-08 23:57:00,77.2,70.5,28.88,West,265,0.0,0.0,80,0.00,,---,0.00,VWS V14.00,2013-07-09 04:57:00,
2013-07-08 23:58:00,77.2,70.5,28.88,West,265,0.0,0.0,80,0.00,,---,0.00,VWS V14.00,2013-07-09 04:58:00,
2013-07-08 23:59:00,77.2,70.5,28.88,West,265,0.0,0.0,80,0.00,,---,0.00,VWS V14.00,2013-07-09 04:59:00,